Darstellungsparameter: Aktuell verwendete Einstellungen:
Skalierung der Graphiken ... ?
xyx+y,   Skalierungsfaktor:      Skalierung: Modus: x, Faktor: 1
Darstellungszeitraum ... ?
Vom - - bis: - -   Zeitraum: 30.08.2020 - 05.09.2020
Min/Max/Avg-Anzeige ... ?
Zeige MMA aktuell
Zeige MMA Monat
Zeige MMA alles
Zeige --A aktuell
Zeige --A Monat
Zeige --A alles
Keine MMA-Anzeige
MMA:
Keine MMA-Graphiken
MMA-Basis: 30.08.2020 - 05.09.2020
Quicknavigation für Darstellung... ?
Tage:      1T, 2T, 3T, 5T -1T -2T -3T -5T +1T +2T +3T +5T
Wochen: 1W, 2W, 3W -1W -2W -3W +1W +2W +3W
Monate: 1M, 3M, 6M -1M -3M -6M +1M +3M +6M
Jahre:    1J, 3J, 5J, 10J -1J -3J -5J -10J +1J +3J +5J +10J
Nutze für die Darstellung ... ?
Originaldaten oder Mittelwerte auf ...
Stundenbasis Tagesbasis Wochenbasis
Monatsbasis Jahresbasis      Datenbasis: Original-Daten
Darstellen als:
Statistik (Auto) Statistik J:M      Darstellung:
Zur Graphik,    zurück zur Übersicht aller Sensoren.
 
Tabellarische Datenbersicht: ?
 
Sensor: Nr:Datum:Temp:Feuchte:Taupunkt:
Aussen-T/F 1 30-08-2020 00:00:00 13.3 C 92 % 12.03 C
2 30-08-2020 00:05:00 13.3 C 92 % 12.03 C
3 30-08-2020 00:10:00 13.2 C 92 % 11.93 C
4 30-08-2020 00:15:00 13.2 C 92 % 11.93 C
5 30-08-2020 00:20:00 13.1 C 92 % 11.83 C
6 30-08-2020 00:25:00 13.1 C 92 % 11.83 C
7 30-08-2020 00:30:00 13 C 92 % 11.73 C
8 30-08-2020 00:35:00 12.9 C 93 % 11.8 C
9 30-08-2020 00:40:00 12.8 C 93 % 11.7 C
10 30-08-2020 00:45:00 12.8 C 93 % 11.7 C
11 30-08-2020 00:50:00 12.8 C 93 % 11.7 C
12 30-08-2020 00:55:00 12.8 C 93 % 11.7 C
13 30-08-2020 01:00:00 12.8 C 93 % 11.7 C
14 30-08-2020 01:05:00 12.7 C 93 % 11.6 C
15 30-08-2020 01:10:00 12.6 C 93 % 11.5 C
16 30-08-2020 01:15:00 12.6 C 93 % 11.5 C
17 30-08-2020 01:20:00 12.4 C 93 % 11.3 C
18 30-08-2020 01:25:00 12.4 C 93 % 11.3 C
19 30-08-2020 01:30:00 12.3 C 93 % 11.2 C
20 30-08-2020 01:35:00 12.2 C 93 % 11.1 C
21 30-08-2020 01:40:00 12.1 C 93 % 11 C
22 30-08-2020 01:45:00 12 C 93 % 10.9 C
23 30-08-2020 01:50:00 11.9 C 94 % 10.97 C
24 30-08-2020 01:55:00 11.9 C 94 % 10.97 C
25 30-08-2020 02:00:00 11.8 C 94 % 10.87 C
Sensor: Nr:Datum:Temp:Feuchte:Taupunkt:
Aussen-T/F 26 30-08-2020 02:05:00 11.8 C 94 % 10.87 C
27 30-08-2020 02:10:00 11.7 C 94 % 10.77 C
28 30-08-2020 02:15:00 11.7 C 94 % 10.77 C
29 30-08-2020 02:20:00 11.7 C 94 % 10.77 C
30 30-08-2020 02:25:00 11.6 C 94 % 10.67 C
31 30-08-2020 02:30:00 11.6 C 94 % 10.67 C
32 30-08-2020 02:35:00 11.6 C 94 % 10.67 C
33 30-08-2020 02:40:00 11.5 C 94 % 10.57 C
34 30-08-2020 02:45:00 11.4 C 94 % 10.47 C
35 30-08-2020 02:50:00 11.3 C 94 % 10.37 C
36 30-08-2020 02:55:00 11.3 C 94 % 10.37 C
37 30-08-2020 03:00:00 11.2 C 94 % 10.27 C
38 30-08-2020 03:05:00 11.2 C 94 % 10.27 C
39 30-08-2020 03:10:00 11.2 C 94 % 10.27 C
40 30-08-2020 03:15:00 11.2 C 94 % 10.27 C
41 30-08-2020 03:20:00 11.1 C 94 % 10.17 C
42 30-08-2020 03:25:00 11.1 C 95 % 10.33 C
43 30-08-2020 03:30:00 11.1 C 95 % 10.33 C
44 30-08-2020 03:35:00 11.1 C 95 % 10.33 C
45 30-08-2020 03:40:00 11 C 95 % 10.23 C
46 30-08-2020 03:45:00 10.9 C 94 % 9.97 C
47 30-08-2020 03:50:00 10.9 C 94 % 9.97 C
48 30-08-2020 03:55:00 10.8 C 94 % 9.87 C
49 30-08-2020 04:00:00 10.8 C 95 % 10.03 C
50 30-08-2020 04:05:00 10.7 C 95 % 9.93 C
Sensor: Nr:Datum:Temp:Feuchte:Taupunkt:
Aussen-T/F 51 30-08-2020 04:10:00 10.7 C 95 % 9.93 C
52 30-08-2020 04:15:00 10.7 C 95 % 9.93 C
53 30-08-2020 04:20:00 10.6 C 95 % 9.83 C
54 30-08-2020 04:25:00 10.6 C 95 % 9.83 C
55 30-08-2020 04:30:00 10.6 C 95 % 9.83 C
56 30-08-2020 04:35:00 10.6 C 95 % 9.83 C
57 30-08-2020 04:40:00 10.7 C 95 % 9.93 C
58 30-08-2020 04:45:00 10.7 C 95 % 9.93 C
59 30-08-2020 04:50:00 10.7 C 95 % 9.93 C
60 30-08-2020 04:55:00 10.7 C 95 % 9.93 C
61 30-08-2020 05:00:00 10.8 C 96 % 10.19 C
62 30-08-2020 05:05:00 10.8 C 96 % 10.19 C
63 30-08-2020 05:10:00 10.9 C 96 % 10.29 C
64 30-08-2020 05:15:00 10.9 C 96 % 10.29 C
65 30-08-2020 05:20:00 11 C 96 % 10.39 C
66 30-08-2020 05:25:00 11 C 96 % 10.39 C
67 30-08-2020 05:30:00 11 C 96 % 10.39 C
68 30-08-2020 05:35:00 11 C 95 % 10.23 C
69 30-08-2020 05:40:00 10.9 C 96 % 10.29 C
70 30-08-2020 05:45:00 10.8 C 95 % 10.03 C
71 30-08-2020 05:50:00 10.7 C 95 % 9.93 C
72 30-08-2020 05:55:00 10.6 C 95 % 9.83 C
73 30-08-2020 06:00:00 10.6 C 95 % 9.83 C
74 30-08-2020 06:05:00 10.6 C 95 % 9.83 C
75 30-08-2020 06:10:00 10.6 C 96 % 9.99 C
Sensor: Nr:Datum:Temp:Feuchte:Taupunkt:
Aussen-T/F 76 30-08-2020 06:15:00 10.6 C 96 % 9.99 C
77 30-08-2020 06:20:00 10.6 C 96 % 9.99 C
78 30-08-2020 06:25:00 10.7 C 96 % 10.09 C
79 30-08-2020 06:30:00 10.7 C 96 % 10.09 C
80 30-08-2020 06:35:00 10.7 C 96 % 10.09 C
81 30-08-2020 06:40:00 10.7 C 96 % 10.09 C
82 30-08-2020 06:45:00 10.7 C 96 % 10.09 C
83 30-08-2020 06:50:00 10.7 C 96 % 10.09 C
84 30-08-2020 06:55:00 10.8 C 96 % 10.19 C
85 30-08-2020 07:00:00 10.8 C 96 % 10.19 C
86 30-08-2020 07:05:00 10.8 C 96 % 10.19 C
87 30-08-2020 07:10:00 10.9 C 96 % 10.29 C
88 30-08-2020 07:15:00 10.9 C 96 % 10.29 C
89 30-08-2020 07:20:00 11 C 96 % 10.39 C
90 30-08-2020 07:25:00 11.1 C 96 % 10.49 C
91 30-08-2020 07:30:00 11.1 C 96 % 10.49 C
92 30-08-2020 07:35:00 11.2 C 96 % 10.59 C
93 30-08-2020 07:40:00 11.2 C 96 % 10.59 C
94 30-08-2020 07:45:00 11.3 C 96 % 10.69 C
95 30-08-2020 07:50:00 11.4 C 96 % 10.79 C
96 30-08-2020 07:55:00 11.5 C 96 % 10.88 C
97 30-08-2020 08:00:00 11.6 C 96 % 10.98 C
98 30-08-2020 08:05:00 11.7 C 96 % 11.08 C
99 30-08-2020 08:10:00 11.7 C 96 % 11.08 C
100 30-08-2020 08:15:00 11.8 C 96 % 11.18 C
Sensor: Nr:Datum:Temp:Feuchte:Taupunkt:
Aussen-T/F 101 30-08-2020 08:20:00 11.8 C 96 % 11.18 C
102 30-08-2020 08:25:00 11.9 C 96 % 11.28 C
103 30-08-2020 08:30:00 11.9 C 96 % 11.28 C
104 30-08-2020 08:35:00 12 C 96 % 11.38 C
105 30-08-2020 08:40:00 12.1 C 96 % 11.48 C
106 30-08-2020 08:45:00 12.2 C 96 % 11.58 C
107 30-08-2020 08:50:00 12.3 C 96 % 11.68 C
108 30-08-2020 08:55:00 12.3 C 97 % 11.84 C
109 30-08-2020 09:00:00 12.4 C 97 % 11.94 C
110 30-08-2020 09:05:00 12.6 C 96 % 11.98 C
111 30-08-2020 09:10:00 12.8 C 97 % 12.34 C
112 30-08-2020 09:15:00 13 C 97 % 12.54 C
113 30-08-2020 09:20:00 13.1 C 97 % 12.63 C
114 30-08-2020 09:25:00 13.2 C 97 % 12.73 C
115 30-08-2020 09:30:00 13.2 C 96 % 12.58 C
116 30-08-2020 09:35:00 13.4 C 96 % 12.78 C
117 30-08-2020 09:40:00 13.4 C 96 % 12.78 C
118 30-08-2020 09:45:00 13.5 C 96 % 12.87 C
119 30-08-2020 09:50:00 13.6 C 95 % 12.81 C
120 30-08-2020 09:55:00 13.7 C 94 % 12.75 C
121 30-08-2020 10:00:00 13.8 C 94 % 12.85 C
122 30-08-2020 10:05:00 14 C 92 % 12.72 C
123 30-08-2020 10:10:00 14.3 C 92 % 13.02 C
124 30-08-2020 10:15:00 14.4 C 91 % 12.95 C
125 30-08-2020 10:20:00 14.6 C 89 % 12.81 C
Sensor: Nr:Datum:Temp:Feuchte:Taupunkt:
Aussen-T/F 126 30-08-2020 10:25:00 14.8 C 89 % 13.01 C
127 30-08-2020 10:30:00 14.9 C 88 % 12.93 C
128 30-08-2020 10:35:00 15.1 C 88 % 13.13 C
129 30-08-2020 10:40:00 15.2 C 88 % 13.23 C
130 30-08-2020 10:45:00 15.3 C 86 % 12.97 C
131 30-08-2020 10:50:00 15.4 C 85 % 12.89 C
132 30-08-2020 10:55:00 15.6 C 85 % 13.09 C
133 30-08-2020 11:00:00 15.7 C 84 % 13.01 C
134 30-08-2020 11:05:00 15.8 C 84 % 13.1 C
135 30-08-2020 11:10:00 15.9 C 84 % 13.2 C
136 30-08-2020 11:15:00 16 C 84 % 13.3 C
137 30-08-2020 11:20:00 16.1 C 83 % 13.21 C
138 30-08-2020 11:25:00 16.2 C 83 % 13.31 C
139 30-08-2020 11:30:00 16.3 C 83 % 13.41 C
140 30-08-2020 11:35:00 16.4 C 82 % 13.32 C
141 30-08-2020 11:40:00 16.4 C 82 % 13.32 C
142 30-08-2020 11:45:00 16.5 C 82 % 13.42 C
143 30-08-2020 11:50:00 16.6 C 81 % 13.33 C
144 30-08-2020 11:55:00 16.6 C 81 % 13.33 C
145 30-08-2020 12:00:00 16.7 C 81 % 13.43 C
146 30-08-2020 12:05:00 16.7 C 81 % 13.43 C
147 30-08-2020 12:10:00 16.8 C 81 % 13.52 C
148 30-08-2020 12:15:00 16.8 C 80 % 13.33 C
149 30-08-2020 12:20:00 16.8 C 81 % 13.52 C
150 30-08-2020 12:25:00 16.9 C 80 % 13.43 C
Sensor: Nr:Datum:Temp:Feuchte:Taupunkt:
Aussen-T/F 151 30-08-2020 12:30:00 17.1 C 80 % 13.62 C
152 30-08-2020 12:35:00 17.2 C 79 % 13.53 C
153 30-08-2020 12:40:00 17.2 C 78 % 13.33 C
154 30-08-2020 12:45:00 17.3 C 78 % 13.43 C
155 30-08-2020 12:50:00 17.4 C 78 % 13.53 C
156 30-08-2020 12:55:00 17.5 C 78 % 13.62 C
157 30-08-2020 13:00:00 17.6 C 78 % 13.72 C
158 30-08-2020 13:05:00 17.6 C 78 % 13.72 C
159 30-08-2020 13:10:00 17.7 C 77 % 13.62 C
160 30-08-2020 13:15:00 17.9 C 77 % 13.81 C
161 30-08-2020 13:20:00 18 C 77 % 13.91 C
162 30-08-2020 13:25:00 18 C 76 % 13.71 C
163 30-08-2020 13:30:00 18.1 C 75 % 13.6 C
164 30-08-2020 13:35:00 18.1 C 75 % 13.6 C
165 30-08-2020 13:40:00 18.2 C 74 % 13.49 C
166 30-08-2020 13:45:00 18.2 C 74 % 13.49 C
167 30-08-2020 13:50:00 18.4 C 74 % 13.68 C
168 30-08-2020 13:55:00 18.4 C 73 % 13.48 C
169 30-08-2020 14:00:00 18.5 C 73 % 13.57 C
170 30-08-2020 14:05:00 18.6 C 72 % 13.46 C
171 30-08-2020 14:10:00 18.6 C 72 % 13.46 C
172 30-08-2020 14:15:00 18.7 C 72 % 13.55 C
173 30-08-2020 14:20:00 18.8 C 72 % 13.65 C
174 30-08-2020 14:25:00 18.9 C 70 % 13.31 C
175 30-08-2020 14:30:00 18.8 C 70 % 13.22 C
Sensor: Nr:Datum:Temp:Feuchte:Taupunkt:
Aussen-T/F 176 30-08-2020 14:35:00 18.8 C 70 % 13.22 C
177 30-08-2020 14:40:00 18.9 C 70 % 13.31 C
178 30-08-2020 14:45:00 19.1 C 70 % 13.5 C
179 30-08-2020 14:50:00 19.2 C 72 % 14.03 C
180 30-08-2020 14:55:00 19.3 C 71 % 13.91 C
181 30-08-2020 15:00:00 19.4 C 69 % 13.57 C
182 30-08-2020 15:05:00 19.4 C 69 % 13.57 C
183 30-08-2020 15:10:00 19.5 C 68 % 13.44 C
184 30-08-2020 15:15:00 19.5 C 67 % 13.21 C
185 30-08-2020 15:20:00 19.6 C 66 % 13.08 C
186 30-08-2020 15:25:00 19.6 C 68 % 13.54 C
187 30-08-2020 15:30:00 19.7 C 67 % 13.4 C
188 30-08-2020 15:35:00 19.8 C 63 % 12.56 C
189 30-08-2020 15:40:00 20.1 C 61 % 12.35 C
190 30-08-2020 15:45:00 20.3 C 62 % 12.79 C
191 30-08-2020 15:50:00 20.7 C 62 % 13.16 C
192 30-08-2020 15:55:00 21.1 C 61 % 13.29 C
193 30-08-2020 16:00:00 21.2 C 59 % 12.87 C
194 30-08-2020 16:05:00 21.4 C 60 % 13.32 C
195 30-08-2020 16:10:00 21.4 C 57 % 12.53 C
196 30-08-2020 16:15:00 21.4 C 56 % 12.27 C
197 30-08-2020 16:20:00 21.4 C 56 % 12.27 C
198 30-08-2020 16:25:00 21.4 C 55 % 11.99 C
199 30-08-2020 16:30:00 21.3 C 56 % 12.17 C
200 30-08-2020 16:35:00 21.3 C 54 % 11.62 C
Sensor: Nr:Datum:Temp:Feuchte:Taupunkt:
Aussen-T/F 201 30-08-2020 16:40:00 21.2 C 56 % 12.08 C
202 30-08-2020 16:45:00 21.2 C 56 % 12.08 C
203 30-08-2020 16:50:00 21.3 C 57 % 12.44 C
204 30-08-2020 16:55:00 21.4 C 56 % 12.27 C
205 30-08-2020 17:00:00 21.5 C 55 % 12.08 C
206 30-08-2020 17:05:00 21.4 C 54 % 11.71 C
207 30-08-2020 17:10:00 21.3 C 55 % 11.9 C
208 30-08-2020 17:15:00 21.3 C 55 % 11.9 C
209 30-08-2020 17:20:00 21.3 C 56 % 12.17 C
210 30-08-2020 17:25:00 21.3 C 55 % 11.9 C
211 30-08-2020 17:30:00 21.5 C 55 % 12.08 C
212 30-08-2020 17:35:00 21.7 C 56 % 12.54 C
213 30-08-2020 17:40:00 21.8 C 54 % 12.08 C
214 30-08-2020 17:45:00 22 C 54 % 12.27 C
215 30-08-2020 17:50:00 22.2 C 53 % 12.17 C
216 30-08-2020 17:55:00 22.2 C 51 % 11.59 C
217 30-08-2020 18:00:00 22.1 C 53 % 12.08 C
218 30-08-2020 18:05:00 21.9 C 50 % 11.01 C
219 30-08-2020 18:10:00 21.8 C 51 % 11.22 C
220 30-08-2020 18:15:00 21.7 C 51 % 11.13 C
221 30-08-2020 18:20:00 21.7 C 53 % 11.71 C
222 30-08-2020 18:25:00 21.6 C 52 % 11.33 C
223 30-08-2020 18:30:00 21.6 C 52 % 11.33 C
224 30-08-2020 18:35:00 21.6 C 52 % 11.33 C
225 30-08-2020 18:40:00 21.5 C 54 % 11.81 C
Sensor: Nr:Datum:Temp:Feuchte:Taupunkt:
Aussen-T/F 226 30-08-2020 18:45:00 21.4 C 53 % 11.43 C
227 30-08-2020 18:50:00 21.3 C 53 % 11.34 C
228 30-08-2020 18:55:00 21.2 C 53 % 11.25 C
229 30-08-2020 19:00:00 21.2 C 53 % 11.25 C
230 30-08-2020 19:05:00 21.1 C 54 % 11.44 C
231 30-08-2020 19:10:00 20.9 C 55 % 11.53 C
232 30-08-2020 19:15:00 20.9 C 57 % 12.07 C
233 30-08-2020 19:20:00 20.8 C 56 % 11.71 C
234 30-08-2020 19:25:00 20.8 C 59 % 12.5 C
235 30-08-2020 19:30:00 20.7 C 56 % 11.61 C
236 30-08-2020 19:35:00 20.6 C 61 % 12.82 C
237 30-08-2020 19:40:00 20.4 C 60 % 12.38 C
238 30-08-2020 19:45:00 20.3 C 60 % 12.29 C
239 30-08-2020 19:50:00 20.1 C 63 % 12.84 C
240 30-08-2020 19:55:00 19.8 C 61 % 12.07 C
241 30-08-2020 20:00:00 19.6 C 64 % 12.61 C
242 30-08-2020 20:05:00 19.3 C 64 % 12.32 C
243 30-08-2020 20:10:00 19.1 C 63 % 11.9 C
244 30-08-2020 20:15:00 18.9 C 66 % 12.41 C
245 30-08-2020 20:20:00 18.8 C 67 % 12.55 C
246 30-08-2020 20:25:00 18.6 C 67 % 12.36 C
247 30-08-2020 20:30:00 18.4 C 68 % 12.39 C
248 30-08-2020 20:35:00 18.4 C 68 % 12.39 C
249 30-08-2020 20:40:00 18.7 C 68 % 12.68 C
250 30-08-2020 20:45:00 18.9 C 68 % 12.87 C
Sensor: Nr:Datum:Temp:Feuchte:Taupunkt:
Aussen-T/F 251 30-08-2020 20:50:00 19 C 69 % 13.19 C
252 30-08-2020 20:55:00 19.1 C 69 % 13.28 C
253 30-08-2020 21:00:00 19.1 C 69 % 13.28 C
254 30-08-2020 21:05:00 19.1 C 70 % 13.5 C
255 30-08-2020 21:10:00 19.1 C 70 % 13.5 C
256 30-08-2020 21:15:00 19 C 70 % 13.41 C
257 30-08-2020 21:20:00 19 C 71 % 13.63 C
258 30-08-2020 21:25:00 18.9 C 71 % 13.53 C
259 30-08-2020 21:30:00 18.9 C 71 % 13.53 C
260 30-08-2020 21:35:00 18.8 C 71 % 13.43 C
261 30-08-2020 21:40:00 18.8 C 72 % 13.65 C
262 30-08-2020 21:45:00 18.7 C 73 % 13.76 C
263 30-08-2020 21:50:00 18.6 C 73 % 13.67 C
264 30-08-2020 21:55:00 18.5 C 74 % 13.78 C
265 30-08-2020 22:00:00 18.3 C 74 % 13.59 C
266 30-08-2020 22:05:00 18.2 C 75 % 13.7 C
267 30-08-2020 22:10:00 18.1 C 75 % 13.6 C
268 30-08-2020 22:15:00 17.9 C 75 % 13.41 C
269 30-08-2020 22:20:00 17.8 C 76 % 13.52 C
270 30-08-2020 22:25:00 17.7 C 77 % 13.62 C
271 30-08-2020 22:30:00 17.6 C 77 % 13.52 C
272 30-08-2020 22:35:00 17.4 C 77 % 13.33 C
273 30-08-2020 22:40:00 17.3 C 78 % 13.43 C
274 30-08-2020 22:45:00 17.3 C 78 % 13.43 C
275 30-08-2020 22:50:00 17.2 C 78 % 13.33 C
Sensor: Nr:Datum:Temp:Feuchte:Taupunkt:
Aussen-T/F 276 30-08-2020 22:55:00 17.1 C 79 % 13.43 C
277 30-08-2020 23:00:00 17 C 79 % 13.33 C
278 30-08-2020 23:05:00 16.9 C 79 % 13.24 C
279 30-08-2020 23:10:00 16.8 C 79 % 13.14 C
280 30-08-2020 23:15:00 16.8 C 80 % 13.33 C
281 30-08-2020 23:20:00 16.7 C 80 % 13.23 C
282 30-08-2020 23:25:00 16.7 C 80 % 13.23 C
283 30-08-2020 23:30:00 16.7 C 80 % 13.23 C
284 30-08-2020 23:35:00 16.6 C 80 % 13.14 C
285 30-08-2020 23:40:00 16.6 C 80 % 13.14 C
286 30-08-2020 23:45:00 16.6 C 80 % 13.14 C
287 30-08-2020 23:50:00 16.5 C 80 % 13.04 C
288 30-08-2020 23:55:00 16.4 C 81 % 13.13 C
289 31-08-2020 00:00:00 16.4 C 81 % 13.13 C
290 31-08-2020 00:05:00 16.3 C 81 % 13.04 C
291 31-08-2020 00:10:00 16.2 C 81 % 12.94 C
292 31-08-2020 00:15:00 16.2 C 82 % 13.13 C
293 31-08-2020 00:20:00 16.1 C 82 % 13.03 C
294 31-08-2020 00:25:00 16.1 C 82 % 13.03 C
295 31-08-2020 00:30:00 16.1 C 82 % 13.03 C
296 31-08-2020 00:35:00 16 C 82 % 12.93 C
297 31-08-2020 00:40:00 15.9 C 83 % 13.02 C
298 31-08-2020 00:45:00 15.9 C 83 % 13.02 C
299 31-08-2020 00:50:00 15.8 C 83 % 12.92 C
300 31-08-2020 00:55:00 15.8 C 83 % 12.92 C
Sensor: Nr:Datum:Temp:Feuchte:Taupunkt:
Aussen-T/F 301 31-08-2020 01:00:00 15.7 C 84 % 13.01 C
302 31-08-2020 01:05:00 15.7 C 84 % 13.01 C
303 31-08-2020 01:10:00 15.7 C 85 % 13.19 C
304 31-08-2020 01:15:00 15.7 C 85 % 13.19 C
305 31-08-2020 01:20:00 15.7 C 85 % 13.19 C
306 31-08-2020 01:25:00 15.7 C 85 % 13.19 C
307 31-08-2020 01:30:00 15.7 C 86 % 13.37 C
308 31-08-2020 01:35:00 15.8 C 85 % 13.28 C
309 31-08-2020 01:40:00 15.8 C 85 % 13.28 C
310 31-08-2020 01:45:00 15.7 C 85 % 13.19 C
311 31-08-2020 01:50:00 15.7 C 85 % 13.19 C
312 31-08-2020 01:55:00 15.6 C 85 % 13.09 C
313 31-08-2020 02:00:00 15.6 C 85 % 13.09 C
314 31-08-2020 02:05:00 15.4 C 85 % 12.89 C
315 31-08-2020 02:10:00 15.4 C 86 % 13.07 C
316 31-08-2020 02:15:00 15.4 C 86 % 13.07 C
317 31-08-2020 02:20:00 15.4 C 86 % 13.07 C
318 31-08-2020 02:25:00 15.4 C 87 % 13.25 C
319 31-08-2020 02:30:00 15.4 C 87 % 13.25 C
320 31-08-2020 02:35:00 15.4 C 87 % 13.25 C
321 31-08-2020 02:40:00 15.5 C 87 % 13.35 C
322 31-08-2020 02:45:00 15.5 C 87 % 13.35 C
323 31-08-2020 02:50:00 15.6 C 87 % 13.45 C
324 31-08-2020 02:55:00 15.6 C 87 % 13.45 C
325 31-08-2020 03:00:00 15.5 C 86 % 13.17 C
Sensor: Nr:Datum:Temp:Feuchte:Taupunkt:
Aussen-T/F 326 31-08-2020 03:05:00 15.4 C 86 % 13.07 C
327 31-08-2020 03:10:00 15.3 C 86 % 12.97 C
328 31-08-2020 03:15:00 15.2 C 85 % 12.7 C
329 31-08-2020 03:20:00 15 C 85 % 12.5 C
330 31-08-2020 03:25:00 14.8 C 86 % 12.48 C
331 31-08-2020 03:30:00 14.5 C 86 % 12.19 C
332 31-08-2020 03:35:00 14.3 C 86 % 11.99 C
333 31-08-2020 03:40:00 14.2 C 87 % 12.07 C
334 31-08-2020 03:45:00 14 C 88 % 12.05 C
335 31-08-2020 03:50:00 13.9 C 88 % 11.95 C
336 31-08-2020 03:55:00 13.8 C 88 % 11.85 C
337 31-08-2020 04:00:00 13.8 C 89 % 12.02 C
338 31-08-2020 04:05:00 13.8 C 89 % 12.02 C
339 31-08-2020 04:10:00 13.8 C 90 % 12.19 C
340 31-08-2020 04:15:00 13.8 C 90 % 12.19 C
341 31-08-2020 04:20:00 13.8 C 90 % 12.19 C
342 31-08-2020 04:25:00 13.8 C 90 % 12.19 C
343 31-08-2020 04:30:00 13.8 C 90 % 12.19 C
344 31-08-2020 04:35:00 13.7 C 89 % 11.92 C
345 31-08-2020 04:40:00 13.7 C 89 % 11.92 C
346 31-08-2020 04:45:00 13.6 C 89 % 11.82 C
347 31-08-2020 04:50:00 13.6 C 90 % 11.99 C
348 31-08-2020 04:55:00 13.5 C 90 % 11.89 C
349 31-08-2020 05:00:00 13.4 C 90 % 11.79 C
350 31-08-2020 05:05:00 13.4 C 90 % 11.79 C
Sensor: Nr:Datum:Temp:Feuchte:Taupunkt:
Aussen-T/F 351 31-08-2020 05:10:00 13.3 C 90 % 11.7 C
352 31-08-2020 05:15:00 13.2 C 90 % 11.6 C
353 31-08-2020 05:20:00 13.2 C 90 % 11.6 C
354 31-08-2020 05:25:00 13.1 C 91 % 11.67 C
355 31-08-2020 05:30:00 13.2 C 91 % 11.76 C
356 31-08-2020 05:35:00 13.1 C 91 % 11.67 C
357 31-08-2020 05:40:00 13.1 C 91 % 11.67 C
358 31-08-2020 05:45:00 13.1 C 91 % 11.67 C
359 31-08-2020 05:50:00 12.9 C 91 % 11.47 C
360 31-08-2020 05:55:00 12.9 C 91 % 11.47 C
361 31-08-2020 06:00:00 12.9 C 92 % 11.63 C
362 31-08-2020 06:05:00 12.8 C 92 % 11.53 C
363 31-08-2020 06:10:00 12.8 C 92 % 11.53 C
364 31-08-2020 06:15:00 12.8 C 92 % 11.53 C
365 31-08-2020 06:20:00 12.7 C 92 % 11.43 C
366 31-08-2020 06:25:00 12.6 C 92 % 11.34 C
367 31-08-2020 06:30:00 12.6 C 92 % 11.34 C
368 31-08-2020 06:35:00 12.6 C 92 % 11.34 C
369 31-08-2020 06:40:00 12.6 C 93 % 11.5 C
370 31-08-2020 06:45:00 12.7 C 93 % 11.6 C
371 31-08-2020 06:50:00 12.7 C 93 % 11.6 C
372 31-08-2020 06:55:00 12.7 C 93 % 11.6 C
373 31-08-2020 07:00:00 12.8 C 93 % 11.7 C
374 31-08-2020 07:05:00 12.8 C 93 % 11.7 C
375 31-08-2020 07:10:00 12.9 C 93 % 11.8 C
Sensor: Nr:Datum:Temp:Feuchte:Taupunkt:
Aussen-T/F 376 31-08-2020 07:15:00 13 C 94 % 12.06 C
377 31-08-2020 07:20:00 13.1 C 94 % 12.16 C
378 31-08-2020 07:25:00 13.2 C 94 % 12.26 C
379 31-08-2020 07:30:00 13.3 C 93 % 12.19 C
380 31-08-2020 07:35:00 13.3 C 94 % 12.36 C
381 31-08-2020 07:40:00 13.4 C 93 % 12.29 C
382 31-08-2020 07:45:00 13.4 C 93 % 12.29 C
383 31-08-2020 07:50:00 13.5 C 93 % 12.39 C
384 31-08-2020 07:55:00 13.6 C 93 % 12.49 C
385 31-08-2020 08:00:00 13.7 C 93 % 12.59 C
386 31-08-2020 08:05:00 13.8 C 93 % 12.69 C
387 31-08-2020 08:10:00 13.8 C 93 % 12.69 C
388 31-08-2020 08:15:00 13.9 C 93 % 12.79 C
389 31-08-2020 08:20:00 14 C 93 % 12.89 C
390 31-08-2020 08:25:00 14.1 C 92 % 12.82 C
391 31-08-2020 08:30:00 14.3 C 92 % 13.02 C
392 31-08-2020 08:35:00 14.4 C 92 % 13.12 C
393 31-08-2020 08:40:00 14.5 C 92 % 13.22 C
394 31-08-2020 08:45:00 14.7 C 91 % 13.25 C
395 31-08-2020 08:50:00 14.8 C 90 % 13.18 C
396 31-08-2020 08:55:00 14.9 C 90 % 13.28 C
397 31-08-2020 09:00:00 15 C 90 % 13.37 C
398 31-08-2020 09:05:00 15.1 C 89 % 13.3 C
399 31-08-2020 09:10:00 15.2 C 89 % 13.4 C
400 31-08-2020 09:15:00 15.3 C 89 % 13.5 C
Sensor: Nr:Datum:Temp:Feuchte:Taupunkt:
Aussen-T/F 401 31-08-2020 09:20:00 15.4 C 89 % 13.6 C
402 31-08-2020 09:25:00 15.4 C 89 % 13.6 C
403 31-08-2020 09:30:00 15.6 C 89 % 13.79 C
404 31-08-2020 09:35:00 15.7 C 88 % 13.72 C
405 31-08-2020 09:40:00 15.8 C 88 % 13.82 C
406 31-08-2020 09:45:00 15.9 C 88 % 13.92 C
407 31-08-2020 09:50:00 16 C 88 % 14.01 C
408 31-08-2020 09:55:00 16.2 C 87 % 14.03 C
409 31-08-2020 10:00:00 16.2 C 87 % 14.03 C
410 31-08-2020 10:05:00 16.3 C 87 % 14.13 C
411 31-08-2020 10:10:00 16.4 C 86 % 14.05 C
412 31-08-2020 10:15:00 16.4 C 86 % 14.05 C
413 31-08-2020 10:20:00 16.5 C 86 % 14.15 C
414 31-08-2020 10:25:00 16.6 C 86 % 14.25 C
415 31-08-2020 10:30:00 16.6 C 85 % 14.07 C
416 31-08-2020 10:35:00 16.7 C 85 % 14.17 C
417 31-08-2020 10:40:00 16.8 C 84 % 14.08 C
418 31-08-2020 10:45:00 16.8 C 84 % 14.08 C
419 31-08-2020 10:50:00 16.9 C 84 % 14.18 C
420 31-08-2020 10:55:00 17 C 83 % 14.09 C
421 31-08-2020 11:00:00 17.1 C 83 % 14.19 C
422 31-08-2020 11:05:00 17.2 C 82 % 14.1 C
423 31-08-2020 11:10:00 17.3 C 82 % 14.2 C
424 31-08-2020 11:15:00 17.4 C 81 % 14.11 C
425 31-08-2020 11:20:00 17.4 C 82 % 14.3 C
Sensor: Nr:Datum:Temp:Feuchte:Taupunkt:
Aussen-T/F 426 31-08-2020 11:25:00 17.6 C 80 % 14.11 C
427 31-08-2020 11:30:00 17.7 C 80 % 14.21 C
428 31-08-2020 11:35:00 17.7 C 80 % 14.21 C
429 31-08-2020 11:40:00 17.9 C 79 % 14.21 C
430 31-08-2020 11:45:00 18.1 C 80 % 14.6 C
431 31-08-2020 11:50:00 18.4 C 80 % 14.89 C
432 31-08-2020 11:55:00 18.7 C 78 % 14.79 C
433 31-08-2020 12:00:00 18.8 C 78 % 14.88 C
434 31-08-2020 12:05:00 18.9 C 79 % 15.18 C
435 31-08-2020 12:10:00 18.9 C 78 % 14.98 C
436 31-08-2020 12:15:00 18.9 C 79 % 15.18 C
437 31-08-2020 12:20:00 18.8 C 78 % 14.88 C
438 31-08-2020 12:25:00 18.8 C 78 % 14.88 C
439 31-08-2020 12:30:00 18.8 C 78 % 14.88 C
440 31-08-2020 12:35:00 19 C 78 % 15.08 C
441 31-08-2020 12:40:00 19.2 C 77 % 15.07 C
442 31-08-2020 12:45:00 19.2 C 76 % 14.87 C
443 31-08-2020 12:50:00 19.1 C 76 % 14.77 C
444 31-08-2020 12:55:00 19.1 C 76 % 14.77 C
445 31-08-2020 13:00:00 19.1 C 77 % 14.97 C
446 31-08-2020 13:05:00 19.3 C 77 % 15.17 C
447 31-08-2020 13:10:00 19.4 C 76 % 15.06 C
448 31-08-2020 13:15:00 19.6 C 76 % 15.26 C
449 31-08-2020 13:20:00 19.7 C 76 % 15.35 C
450 31-08-2020 13:25:00 19.7 C 75 % 15.15 C
Sensor: Nr:Datum:Temp:Feuchte:Taupunkt:
Aussen-T/F 451 31-08-2020 13:30:00 19.7 C 74 % 14.94 C
452 31-08-2020 13:35:00 19.7 C 74 % 14.94 C
453 31-08-2020 13:40:00 19.6 C 75 % 15.05 C
454 31-08-2020 13:45:00 19.6 C 75 % 15.05 C
455 31-08-2020 13:50:00 19.6 C 75 % 15.05 C
456 31-08-2020 13:55:00 19.6 C 74 % 14.84 C
457 31-08-2020 14:00:00 19.6 C 75 % 15.05 C
458 31-08-2020 14:05:00 19.7 C 75 % 15.15 C
459 31-08-2020 14:10:00 19.7 C 75 % 15.15 C
460 31-08-2020 14:15:00 19.4 C 74 % 14.65 C
461 31-08-2020 14:20:00 19.1 C 77 % 14.97 C
462 31-08-2020 14:25:00 18.6 C 82 % 15.47 C
463 31-08-2020 14:30:00 18.2 C 84 % 15.45 C
464 31-08-2020 14:35:00 17.9 C 85 % 15.34 C
465 31-08-2020 14:40:00 17.6 C 87 % 15.41 C
466 31-08-2020 14:45:00 17.2 C 88 % 15.2 C
467 31-08-2020 14:50:00 16.9 C 89 % 15.08 C
468 31-08-2020 14:55:00 16.7 C 89 % 14.88 C
469 31-08-2020 15:00:00 16.6 C 90 % 14.95 C
470 31-08-2020 15:05:00 16.4 C 90 % 14.76 C
471 31-08-2020 15:10:00 16.3 C 91 % 14.83 C
472 31-08-2020 15:15:00 16.2 C 91 % 14.73 C
473 31-08-2020 15:20:00 16.2 C 91 % 14.73 C
474 31-08-2020 15:25:00 16.3 C 92 % 15 C
475 31-08-2020 15:30:00 16.3 C 92 % 15 C
Sensor: Nr:Datum:Temp:Feuchte:Taupunkt:
Aussen-T/F 476 31-08-2020 15:35:00 16.3 C 93 % 15.17 C
477 31-08-2020 15:40:00 16.4 C 93 % 15.27 C
478 31-08-2020 15:45:00 16.4 C 92 % 15.1 C
479 31-08-2020 15:50:00 16.3 C 92 % 15 C
480 31-08-2020 15:55:00 16.5 C 93 % 15.36 C
481 31-08-2020 16:00:00 16.6 C 93 % 15.46 C
482 31-08-2020 16:05:00 16.6 C 93 % 15.46 C
483 31-08-2020 16:10:00 16.5 C 92 % 15.2 C
484 31-08-2020 16:15:00 16.6 C 93 % 15.46 C
485 31-08-2020 16:20:00 16.8 C 93 % 15.66 C
486 31-08-2020 16:25:00 16.9 C 93 % 15.76 C
487 31-08-2020 16:30:00 16.9 C 92 % 15.59 C
488 31-08-2020 16:35:00 16.8 C 92 % 15.49 C
489 31-08-2020 16:40:00 16.8 C 92 % 15.49 C
490 31-08-2020 16:45:00 16.8 C 92 % 15.49 C
491 31-08-2020 16:50:00 16.8 C 92 % 15.49 C
492 31-08-2020 16:55:00 16.8 C 92 % 15.49 C
493 31-08-2020 17:00:00 16.8 C 92 % 15.49 C
494 31-08-2020 17:05:00 16.7 C 92 % 15.39 C
495 31-08-2020 17:10:00 16.6 C 92 % 15.3 C
496 31-08-2020 17:15:00 16.5 C 92 % 15.2 C
497 31-08-2020 17:20:00 16.4 C 92 % 15.1 C
498 31-08-2020 17:25:00 16.3 C 92 % 15 C
499 31-08-2020 17:30:00 16.3 C 93 % 15.17 C
500 31-08-2020 17:35:00 16.2 C 93 % 15.07 C
Sensor: Nr:Datum:Temp:Feuchte:Taupunkt:
Aussen-T/F 501 31-08-2020 17:40:00 16.3 C 93 % 15.17 C
502 31-08-2020 17:45:00 16.3 C 93 % 15.17 C
503 31-08-2020 17:50:00 16.2 C 93 % 15.07 C
504 31-08-2020 17:55:00 16.2 C 93 % 15.07 C
505 31-08-2020 18:00:00 16.2 C 93 % 15.07 C
506 31-08-2020 18:05:00 16.1 C 94 % 15.13 C
507 31-08-2020 18:10:00 16.1 C 93 % 14.97 C
508 31-08-2020 18:15:00 16 C 94 % 15.03 C
509 31-08-2020 18:20:00 16 C 94 % 15.03 C
510 31-08-2020 18:25:00 16 C 94 % 15.03 C
511 31-08-2020 18:30:00 16 C 94 % 15.03 C
512 31-08-2020 18:35:00 16 C 94 % 15.03 C
513 31-08-2020 18:40:00 16 C 94 % 15.03 C
514 31-08-2020 18:45:00 16 C 93 % 14.87 C
515 31-08-2020 18:50:00 15.9 C 93 % 14.77 C
516 31-08-2020 18:55:00 16 C 94 % 15.03 C
517 31-08-2020 19:00:00 16 C 94 % 15.03 C
518 31-08-2020 19:05:00 16 C 94 % 15.03 C
519 31-08-2020 19:10:00 16 C 94 % 15.03 C
520 31-08-2020 19:15:00 15.9 C 94 % 14.94 C
521 31-08-2020 19:20:00 15.8 C 93 % 14.67 C
522 31-08-2020 19:25:00 15.7 C 93 % 14.57 C
523 31-08-2020 19:30:00 15.5 C 93 % 14.37 C
524 31-08-2020 19:35:00 15.4 C 93 % 14.27 C
525 31-08-2020 19:40:00 15.3 C 93 % 14.18 C
Sensor: Nr:Datum:Temp:Feuchte:Taupunkt:
Aussen-T/F 526 31-08-2020 19:45:00 15.2 C 94 % 14.24 C
527 31-08-2020 19:50:00 15.2 C 94 % 14.24 C
528 31-08-2020 19:55:00 15.2 C 94 % 14.24 C
529 31-08-2020 20:00:00 15.2 C 94 % 14.24 C
530 31-08-2020 20:05:00 15.2 C 94 % 14.24 C
531 31-08-2020 20:10:00 15.1 C 94 % 14.14 C
532 31-08-2020 20:15:00 15.1 C 94 % 14.14 C
533 31-08-2020 20:20:00 14.9 C 94 % 13.94 C
534 31-08-2020 20:25:00 14.9 C 94 % 13.94 C
535 31-08-2020 20:30:00 14.8 C 94 % 13.84 C
536 31-08-2020 20:35:00 14.8 C 94 % 13.84 C
537 31-08-2020 20:40:00 14.8 C 94 % 13.84 C
538 31-08-2020 20:45:00 14.8 C 94 % 13.84 C
539 31-08-2020 20:50:00 14.7 C 94 % 13.74 C
540 31-08-2020 20:55:00 14.7 C 95 % 13.91 C
541 31-08-2020 21:00:00 14.7 C 95 % 13.91 C
542 31-08-2020 21:05:00 14.7 C 95 % 13.91 C
543 31-08-2020 21:10:00 14.7 C 95 % 13.91 C
544 31-08-2020 21:15:00 14.7 C 95 % 13.91 C
545 31-08-2020 21:20:00 14.6 C 95 % 13.81 C
546 31-08-2020 21:25:00 14.6 C 95 % 13.81 C
547 31-08-2020 21:30:00 14.6 C 95 % 13.81 C
548 31-08-2020 21:35:00 14.5 C 95 % 13.71 C
549 31-08-2020 21:40:00 14.5 C 95 % 13.71 C
550 31-08-2020 21:45:00 14.4 C 95 % 13.61 C
Sensor: Nr:Datum:Temp:Feuchte:Taupunkt:
Aussen-T/F 551 31-08-2020 21:50:00 14.4 C 95 % 13.61 C
552 31-08-2020 21:55:00 14.4 C 95 % 13.61 C
553 31-08-2020 22:00:00 14.4 C 95 % 13.61 C
554 31-08-2020 22:05:00 14.5 C 95 % 13.71 C
555 31-08-2020 22:10:00 14.5 C 95 % 13.71 C
556 31-08-2020 22:15:00 14.6 C 95 % 13.81 C
557 31-08-2020 22:20:00 14.6 C 95 % 13.81 C
558 31-08-2020 22:25:00 14.6 C 95 % 13.81 C
559 31-08-2020 22:30:00 14.6 C 95 % 13.81 C
560 31-08-2020 22:35:00 14.5 C 95 % 13.71 C
561 31-08-2020 22:40:00 14.4 C 95 % 13.61 C
562 31-08-2020 22:45:00 14.4 C 96 % 13.77 C
563 31-08-2020 22:50:00 14.4 C 96 % 13.77 C
564 31-08-2020 22:55:00 14.4 C 96 % 13.77 C
565 31-08-2020 23:00:00 14.4 C 96 % 13.77 C
566 31-08-2020 23:05:00 14.5 C 96 % 13.87 C
567 31-08-2020 23:10:00 14.6 C 96 % 13.97 C
568 31-08-2020 23:15:00 14.6 C 96 % 13.97 C
569 31-08-2020 23:20:00 14.6 C 96 % 13.97 C
570 31-08-2020 23:25:00 14.5 C 96 % 13.87 C
571 31-08-2020 23:30:00 14.5 C 96 % 13.87 C
572 31-08-2020 23:35:00 14.4 C 96 % 13.77 C
573 31-08-2020 23:40:00 14.4 C 96 % 13.77 C
574 31-08-2020 23:45:00 14.4 C 96 % 13.77 C
575 31-08-2020 23:50:00 14.3 C 96 % 13.67 C
Sensor: Nr:Datum:Temp:Feuchte:Taupunkt:
Aussen-T/F 576 31-08-2020 23:55:00 14.3 C 96 % 13.67 C
577 01-09-2020 00:00:00 14.3 C 96 % 13.67 C
578 01-09-2020 00:05:00 14.2 C 96 % 13.57 C
579 01-09-2020 00:10:00 14.2 C 96 % 13.57 C
580 01-09-2020 00:15:00 14.2 C 96 % 13.57 C
581 01-09-2020 00:20:00 14.2 C 96 % 13.57 C
582 01-09-2020 00:25:00 14.1 C 96 % 13.47 C
583 01-09-2020 00:30:00 14.1 C 96 % 13.47 C
584 01-09-2020 00:35:00 14.1 C 96 % 13.47 C
585 01-09-2020 00:40:00 14.1 C 96 % 13.47 C
586 01-09-2020 00:45:00 14.1 C 96 % 13.47 C
587 01-09-2020 00:50:00 14.1 C 96 % 13.47 C
588 01-09-2020 00:55:00 14.1 C 96 % 13.47 C
589 01-09-2020 01:00:00 14.1 C 96 % 13.47 C
590 01-09-2020 01:05:00 14.1 C 96 % 13.47 C
591 01-09-2020 01:10:00 14.1 C 96 % 13.47 C
592 01-09-2020 01:15:00 14.1 C 96 % 13.47 C
593 01-09-2020 01:20:00 14.1 C 96 % 13.47 C
594 01-09-2020 01:25:00 14.1 C 96 % 13.47 C
595 01-09-2020 01:30:00 14.1 C 96 % 13.47 C
596 01-09-2020 01:35:00 14.1 C 96 % 13.47 C
597 01-09-2020 01:40:00 14.1 C 96 % 13.47 C
598 01-09-2020 01:45:00 14 C 96 % 13.37 C
599 01-09-2020 01:50:00 14 C 96 % 13.37 C
600 01-09-2020 01:55:00 13.9 C 96 % 13.27 C
Sensor: Nr:Datum:Temp:Feuchte:Taupunkt:
Aussen-T/F 601 01-09-2020 02:00:00 13.9 C 96 % 13.27 C
602 01-09-2020 02:05:00 13.9 C 96 % 13.27 C
603 01-09-2020 02:10:00 13.9 C 96 % 13.27 C
604 01-09-2020 02:15:00 13.9 C 96 % 13.27 C
605 01-09-2020 02:20:00 13.8 C 96 % 13.17 C
606 01-09-2020 02:25:00 13.8 C 96 % 13.17 C
607 01-09-2020 02:30:00 13.7 C 96 % 13.07 C
608 01-09-2020 02:35:00 13.6 C 96 % 12.97 C
609 01-09-2020 02:40:00 13.6 C 96 % 12.97 C
610 01-09-2020 02:45:00 13.4 C 96 % 12.78 C
611 01-09-2020 02:50:00 13.3 C 96 % 12.68 C
612 01-09-2020 02:55:00 13.2 C 96 % 12.58 C
613 01-09-2020 03:00:00 13.1 C 96 % 12.48 C
614 01-09-2020 03:05:00 13 C 96 % 12.38 C
615 01-09-2020 03:10:00 13 C 96 % 12.38 C
616 01-09-2020 03:15:00 13.1 C 96 % 12.48 C
617 01-09-2020 03:20:00 13.1 C 96 % 12.48 C
618 01-09-2020 03:25:00 13.1 C 96 % 12.48 C
619 01-09-2020 03:30:00 13.2 C 96 % 12.58 C
620 01-09-2020 03:35:00 13.2 C 96 % 12.58 C
621 01-09-2020 03:40:00 13.2 C 96 % 12.58 C
622 01-09-2020 03:45:00 13.2 C 96 % 12.58 C
623 01-09-2020 03:50:00 13.2 C 96 % 12.58 C
624 01-09-2020 03:55:00 13.1 C 96 % 12.48 C
625 01-09-2020 04:00:00 13.1 C 96 % 12.48 C
Sensor: Nr:Datum:Temp:Feuchte:Taupunkt:
Aussen-T/F 626 01-09-2020 04:05:00 13.1 C 96 % 12.48 C
627 01-09-2020 04:10:00 13.1 C 96 % 12.48 C
628 01-09-2020 04:15:00 13.1 C 96 % 12.48 C
629 01-09-2020 04:20:00 13 C 96 % 12.38 C
630 01-09-2020 04:25:00 12.9 C 96 % 12.28 C
631 01-09-2020 04:30:00 12.9 C 96 % 12.28 C
632 01-09-2020 04:35:00 12.9 C 96 % 12.28 C
633 01-09-2020 04:40:00 12.8 C 96 % 12.18 C
634 01-09-2020 04:45:00 12.8 C 96 % 12.18 C
635 01-09-2020 04:50:00 12.8 C 96 % 12.18 C
636 01-09-2020 04:55:00 12.8 C 97 % 12.34 C
637 01-09-2020 05:00:00 12.8 C 97 % 12.34 C
638 01-09-2020 05:05:00 12.8 C 97 % 12.34 C
639 01-09-2020 05:10:00 12.7 C 97 % 12.24 C
640 01-09-2020 05:15:00 12.7 C 97 % 12.24 C
641 01-09-2020 05:20:00 12.7 C 96 % 12.08 C
642 01-09-2020 05:25:00 12.6 C 96 % 11.98 C
643 01-09-2020 05:30:00 12.6 C 96 % 11.98 C
644 01-09-2020 05:35:00 12.5 C 96 % 11.88 C
645 01-09-2020 05:40:00 12.4 C 96 % 11.78 C
646 01-09-2020 05:45:00 12.3 C 96 % 11.68 C
647 01-09-2020 05:50:00 12.3 C 96 % 11.68 C
648 01-09-2020 05:55:00 12.3 C 96 % 11.68 C
649 01-09-2020 06:00:00 12.3 C 96 % 11.68 C
650 01-09-2020 06:05:00 12.2 C 96 % 11.58 C
Sensor: Nr:Datum:Temp:Feuchte:Taupunkt:
Aussen-T/F 651 01-09-2020 06:10:00 12.2 C 96 % 11.58 C
652 01-09-2020 06:15:00 12.2 C 97 % 11.74 C
653 01-09-2020 06:20:00 12.1 C 97 % 11.64 C
654 01-09-2020 06:25:00 12.1 C 97 % 11.64 C
655 01-09-2020 06:30:00 12.1 C 97 % 11.64 C
656 01-09-2020 06:35:00 12.1 C 97 % 11.64 C
657 01-09-2020 06:40:00 12.1 C 97 % 11.64 C
658 01-09-2020 06:45:00 12.1 C 97 % 11.64 C
659 01-09-2020 06:50:00 12.1 C 97 % 11.64 C
660 01-09-2020 06:55:00 12.1 C 97 % 11.64 C
661 01-09-2020 07:00:00 12.2 C 97 % 11.74 C
662 01-09-2020 07:05:00 12.3 C 97 % 11.84 C
663 01-09-2020 07:10:00 12.4 C 97 % 11.94 C
664 01-09-2020 07:15:00 12.4 C 97 % 11.94 C
665 01-09-2020 07:20:00 12.4 C 97 % 11.94 C
666 01-09-2020 07:25:00 12.5 C 97 % 12.04 C
667 01-09-2020 07:30:00 12.5 C 97 % 12.04 C
668 01-09-2020 07:35:00 12.6 C 97 % 12.14 C
669 01-09-2020 07:40:00 12.6 C 97 % 12.14 C
670 01-09-2020 07:45:00 12.7 C 97 % 12.24 C
671 01-09-2020 07:50:00 12.7 C 97 % 12.24 C
672 01-09-2020 07:55:00 12.8 C 97 % 12.34 C
673 01-09-2020 08:00:00 12.9 C 97 % 12.44 C
674 01-09-2020 08:05:00 13 C 97 % 12.54 C
675 01-09-2020 08:10:00 13.1 C 97 % 12.63 C
Sensor: Nr:Datum:Temp:Feuchte:Taupunkt:
Aussen-T/F 676 01-09-2020 08:15:00 13.2 C 97 % 12.73 C
677 01-09-2020 08:20:00 13.3 C 97 % 12.83 C
678 01-09-2020 08:25:00 13.3 C 97 % 12.83 C
679 01-09-2020 08:30:00 13.5 C 97 % 13.03 C
680 01-09-2020 08:35:00 13.6 C 97 % 13.13 C
681 01-09-2020 08:40:00 13.7 C 97 % 13.23 C
682 01-09-2020 08:45:00 13.7 C 97 % 13.23 C
683 01-09-2020 08:50:00 13.8 C 97 % 13.33 C
684 01-09-2020 08:55:00 13.8 C 97 % 13.33 C
685 01-09-2020 09:00:00 13.7 C 97 % 13.23 C
686 01-09-2020 09:05:00 13.7 C 97 % 13.23 C
687 01-09-2020 09:10:00 13.7 C 97 % 13.23 C
688 01-09-2020 09:15:00 13.8 C 97 % 13.33 C
689 01-09-2020 09:20:00 13.8 C 97 % 13.33 C
690 01-09-2020 09:25:00 13.9 C 97 % 13.43 C
691 01-09-2020 09:30:00 13.9 C 97 % 13.43 C
692 01-09-2020 09:35:00 13.8 C 97 % 13.33 C
693 01-09-2020 09:40:00 13.9 C 97 % 13.43 C
694 01-09-2020 09:45:00 14 C 97 % 13.53 C
695 01-09-2020 09:50:00 14.1 C 97 % 13.63 C
696 01-09-2020 09:55:00 14.2 C 97 % 13.73 C
697 01-09-2020 10:00:00 14.3 C 97 % 13.83 C
698 01-09-2020 10:05:00 14.3 C 97 % 13.83 C
699 01-09-2020 10:10:00 14.3 C 97 % 13.83 C
700 01-09-2020 10:15:00 14.1 C 97 % 13.63 C
Sensor: Nr:Datum:Temp:Feuchte:Taupunkt:
Aussen-T/F 701 01-09-2020 10:20:00 14.1 C 97 % 13.63 C
702 01-09-2020 10:25:00 14.1 C 97 % 13.63 C
703 01-09-2020 10:30:00 14.2 C 97 % 13.73 C
704 01-09-2020 10:35:00 14.2 C 97 % 13.73 C
705 01-09-2020 10:40:00 14.3 C 97 % 13.83 C
706 01-09-2020 10:45:00 14.3 C 96 % 13.67 C
707 01-09-2020 10:50:00 14.4 C 96 % 13.77 C
708 01-09-2020 10:55:00 14.6 C 96 % 13.97 C
709 01-09-2020 11:00:00 14.8 C 96 % 14.17 C
710 01-09-2020 11:05:00 14.8 C 96 % 14.17 C
711 01-09-2020 11:10:00 14.9 C 96 % 14.27 C
712 01-09-2020 11:15:00 14.9 C 95 % 14.11 C
713 01-09-2020 11:20:00 15.1 C 94 % 14.14 C
714 01-09-2020 11:25:00 15.2 C 93 % 14.08 C
715 01-09-2020 11:30:00 15.3 C 93 % 14.18 C
716 01-09-2020 11:35:00 15.5 C 92 % 14.21 C
717 01-09-2020 11:40:00 15.7 C 91 % 14.24 C
718 01-09-2020 11:45:00 15.9 C 90 % 14.26 C
719 01-09-2020 11:50:00 16.1 C 89 % 14.29 C
720 01-09-2020 11:55:00 16.1 C 87 % 13.94 C
721 01-09-2020 12:00:00 16.2 C 87 % 14.03 C
722 01-09-2020 12:05:00 16.4 C 88 % 14.41 C
723 01-09-2020 12:10:00 16.6 C 89 % 14.78 C
724 01-09-2020 12:15:00 16.8 C 88 % 14.8 C
725 01-09-2020 12:20:00 16.9 C 89 % 15.08 C
Sensor: Nr:Datum:Temp:Feuchte:Taupunkt:
Aussen-T/F 726 01-09-2020 12:25:00 16.9 C 87 % 14.72 C
727 01-09-2020 12:30:00 17 C 85 % 14.46 C
728 01-09-2020 12:35:00 17.2 C 84 % 14.47 C
729 01-09-2020 12:40:00 17.3 C 83 % 14.39 C
730 01-09-2020 12:45:00 17.4 C 82 % 14.3 C
731 01-09-2020 12:50:00 17.6 C 82 % 14.49 C
732 01-09-2020 12:55:00 17.7 C 81 % 14.4 C
733 01-09-2020 13:00:00 17.8 C 79 % 14.11 C
734 01-09-2020 13:05:00 17.9 C 80 % 14.4 C
735 01-09-2020 13:10:00 18 C 79 % 14.31 C
736 01-09-2020 13:15:00 18.1 C 77 % 14.01 C
737 01-09-2020 13:20:00 18.2 C 76 % 13.9 C
738 01-09-2020 13:25:00 18.4 C 75 % 13.89 C
739 01-09-2020 13:30:00 18.6 C 73 % 13.67 C
740 01-09-2020 13:35:00 18.8 C 72 % 13.65 C
741 01-09-2020 13:40:00 18.9 C 69 % 13.09 C
742 01-09-2020 13:45:00 19.1 C 68 % 13.06 C
743 01-09-2020 13:50:00 19.2 C 64 % 12.23 C
744 01-09-2020 13:55:00 19.3 C 64 % 12.32 C
745 01-09-2020 14:00:00 19.3 C 65 % 12.56 C
746 01-09-2020 14:05:00 19.3 C 65 % 12.56 C
747 01-09-2020 14:10:00 19.4 C 64 % 12.42 C
748 01-09-2020 14:15:00 19.4 C 65 % 12.66 C
749 01-09-2020 14:20:00 19.3 C 65 % 12.56 C
750 01-09-2020 14:25:00 19.2 C 66 % 12.7 C
Sensor: Nr:Datum:Temp:Feuchte:Taupunkt:
Aussen-T/F 751 01-09-2020 14:30:00 19.3 C 67 % 13.02 C
752 01-09-2020 14:35:00 19.4 C 66 % 12.89 C
753 01-09-2020 14:40:00 19.6 C 63 % 12.37 C
754 01-09-2020 14:45:00 19.7 C 65 % 12.94 C
755 01-09-2020 14:50:00 19.8 C 62 % 12.31 C
756 01-09-2020 14:55:00 19.8 C 59 % 11.56 C
757 01-09-2020 15:00:00 19.7 C 59 % 11.47 C
758 01-09-2020 15:05:00 19.7 C 59 % 11.47 C
759 01-09-2020 15:10:00 19.8 C 58 % 11.3 C
760 01-09-2020 15:15:00 19.8 C 60 % 11.82 C
761 01-09-2020 15:20:00 19.8 C 59 % 11.56 C
762 01-09-2020 15:25:00 19.9 C 62 % 12.41 C
763 01-09-2020 15:30:00 19.9 C 61 % 12.16 C
764 01-09-2020 15:35:00 20.1 C 62 % 12.6 C
765 01-09-2020 15:40:00 20.3 C 62 % 12.79 C
766 01-09-2020 15:45:00 20.4 C 61 % 12.63 C
767 01-09-2020 15:50:00 20.3 C 61 % 12.54 C
768 01-09-2020 15:55:00 20.2 C 61 % 12.44 C
769 01-09-2020 16:00:00 19.9 C 66 % 13.36 C
770 01-09-2020 16:05:00 19.7 C 69 % 13.86 C
771 01-09-2020 16:10:00 19.5 C 68 % 13.44 C
772 01-09-2020 16:15:00 19.1 C 72 % 13.94 C
773 01-09-2020 16:20:00 18.8 C 74 % 14.07 C
774 01-09-2020 16:25:00 18.7 C 79 % 14.99 C
775 01-09-2020 16:30:00 18.6 C 82 % 15.47 C
Sensor: Nr:Datum:Temp:Feuchte:Taupunkt:
Aussen-T/F 776 01-09-2020 16:35:00 18.2 C 75 % 13.7 C
777 01-09-2020 16:40:00 17.9 C 74 % 13.2 C
778 01-09-2020 16:45:00 17.8 C 77 % 13.72 C
779 01-09-2020 16:50:00 17.6 C 76 % 13.32 C
780 01-09-2020 16:55:00 17.5 C 77 % 13.43 C
781 01-09-2020 17:00:00 17.4 C 77 % 13.33 C
782 01-09-2020 17:05:00 17.3 C 77 % 13.23 C
783 01-09-2020 17:10:00 17.3 C 77 % 13.23 C
784 01-09-2020 17:15:00 17.3 C 78 % 13.43 C
785 01-09-2020 17:20:00 17.2 C 78 % 13.33 C
786 01-09-2020 17:25:00 17.2 C 78 % 13.33 C
787 01-09-2020 17:30:00 17.2 C 80 % 13.72 C
788 01-09-2020 17:35:00 17.2 C 80 % 13.72 C
789 01-09-2020 17:40:00 17.1 C 81 % 13.82 C
790 01-09-2020 17:45:00 17.1 C 82 % 14 C
791 01-09-2020 17:50:00 17 C 82 % 13.91 C
792 01-09-2020 17:55:00 16.9 C 83 % 14 C
793 01-09-2020 18:00:00 16.9 C 84 % 14.18 C
794 01-09-2020 18:05:00 16.8 C 84 % 14.08 C
795 01-09-2020 18:10:00 16.7 C 83 % 13.8 C
796 01-09-2020 18:15:00 16.6 C 83 % 13.7 C
797 01-09-2020 18:20:00 16.4 C 85 % 13.87 C
798 01-09-2020 18:25:00 16.4 C 85 % 13.87 C
799 01-09-2020 18:30:00 16.3 C 85 % 13.77 C
800 01-09-2020 18:35:00 16.2 C 84 % 13.5 C
Sensor: Nr:Datum:Temp:Feuchte:Taupunkt:
Aussen-T/F 801 01-09-2020 18:40:00 16.2 C 85 % 13.68 C
802 01-09-2020 18:45:00 16.1 C 85 % 13.58 C
803 01-09-2020 18:50:00 16 C 85 % 13.48 C
804 01-09-2020 18:55:00 15.9 C 85 % 13.38 C
805 01-09-2020 19:00:00 15.9 C 85 % 13.38 C
806 01-09-2020 19:05:00 15.9 C 87 % 13.74 C
807 01-09-2020 19:10:00 16.1 C 87 % 13.94 C
808 01-09-2020 19:15:00 16.3 C 86 % 13.95 C
809 01-09-2020 19:20:00 16.5 C 86 % 14.15 C
810 01-09-2020 19:25:00 16.7 C 85 % 14.17 C
811 01-09-2020 19:30:00 16.8 C 85 % 14.26 C
812 01-09-2020 19:35:00 16.8 C 85 % 14.26 C
813 01-09-2020 19:40:00 16.8 C 85 % 14.26 C
814 01-09-2020 19:45:00 16.8 C 85 % 14.26 C
815 01-09-2020 19:50:00 16.8 C 85 % 14.26 C
816 01-09-2020 19:55:00 16.6 C 84 % 13.89 C
817 01-09-2020 20:00:00 16.4 C 84 % 13.69 C
818 01-09-2020 20:05:00 16.2 C 84 % 13.5 C
819 01-09-2020 20:10:00 15.9 C 84 % 13.2 C
820 01-09-2020 20:15:00 15.6 C 84 % 12.91 C
821 01-09-2020 20:20:00 15.4 C 85 % 12.89 C
822 01-09-2020 20:25:00 15.2 C 86 % 12.88 C
823 01-09-2020 20:30:00 15.1 C 86 % 12.78 C
824 01-09-2020 20:35:00 14.9 C 87 % 12.76 C
825 01-09-2020 20:40:00 14.8 C 87 % 12.66 C
Sensor: Nr:Datum:Temp:Feuchte:Taupunkt:
Aussen-T/F 826 01-09-2020 20:45:00 14.7 C 86 % 12.38 C
827 01-09-2020 20:50:00 14.6 C 87 % 12.46 C
828 01-09-2020 20:55:00 14.4 C 87 % 12.27 C
829 01-09-2020 21:00:00 14.3 C 88 % 12.34 C
830 01-09-2020 21:05:00 14.3 C 88 % 12.34 C
831 01-09-2020 21:10:00 14.2 C 88 % 12.24 C
832 01-09-2020 21:15:00 14.2 C 88 % 12.24 C
833 01-09-2020 21:20:00 14.2 C 89 % 12.41 C
834 01-09-2020 21:25:00 14.2 C 89 % 12.41 C
835 01-09-2020 21:30:00 14.1 C 89 % 12.32 C
836 01-09-2020 21:35:00 14.1 C 89 % 12.32 C
837 01-09-2020 21:40:00 14.1 C 89 % 12.32 C
838 01-09-2020 21:45:00 14 C 89 % 12.22 C
839 01-09-2020 21:50:00 14 C 89 % 12.22 C
840 01-09-2020 21:55:00 14.1 C 90 % 12.49 C
841 01-09-2020 22:00:00 14.1 C 90 % 12.49 C
842 01-09-2020 22:05:00 14.1 C 90 % 12.49 C
843 01-09-2020 22:10:00 13.9 C 90 % 12.29 C
844 01-09-2020 22:15:00 13.9 C 90 % 12.29 C
845 01-09-2020 22:20:00 13.8 C 90 % 12.19 C
846 01-09-2020 22:25:00 13.8 C 90 % 12.19 C
847 01-09-2020 22:30:00 13.7 C 90 % 12.09 C
848 01-09-2020 22:35:00 13.6 C 90 % 11.99 C
849 01-09-2020 22:40:00 13.5 C 90 % 11.89 C
850 01-09-2020 22:45:00 13.4 C 90 % 11.79 C
Sensor: Nr:Datum:Temp:Feuchte:Taupunkt:
Aussen-T/F 851 01-09-2020 22:50:00 13.3 C 91 % 11.86 C
852 01-09-2020 22:55:00 13.3 C 91 % 11.86 C
853 01-09-2020 23:00:00 13.3 C 91 % 11.86 C
854 01-09-2020 23:05:00 13.3 C 91 % 11.86 C
855 01-09-2020 23:10:00 13.3 C 91 % 11.86 C
856 01-09-2020 23:15:00 13.3 C 92 % 12.03 C
857 01-09-2020 23:20:00 13.3 C 92 % 12.03 C
858 01-09-2020 23:25:00 13.3 C 92 % 12.03 C
859 01-09-2020 23:30:00 13.3 C 92 % 12.03 C
860 01-09-2020 23:35:00 13.3 C 92 % 12.03 C
861 01-09-2020 23:40:00 13.3 C 92 % 12.03 C
862 01-09-2020 23:45:00 13.3 C 92 % 12.03 C
863 01-09-2020 23:50:00 13.3 C 92 % 12.03 C
864 01-09-2020 23:55:00 13.4 C 92 % 12.13 C
865 02-09-2020 00:00:00 13.4 C 92 % 12.13 C
866 02-09-2020 00:05:00 13.3 C 92 % 12.03 C
867 02-09-2020 00:10:00 13.3 C 92 % 12.03 C
868 02-09-2020 00:15:00 13.3 C 93 % 12.19 C
869 02-09-2020 00:20:00 13.3 C 93 % 12.19 C
870 02-09-2020 00:25:00 13.3 C 93 % 12.19 C
871 02-09-2020 00:30:00 13.3 C 93 % 12.19 C
872 02-09-2020 00:35:00 13.3 C 93 % 12.19 C
873 02-09-2020 00:40:00 13.3 C 93 % 12.19 C
874 02-09-2020 00:45:00 13.3 C 93 % 12.19 C
875 02-09-2020 00:50:00 13.3 C 93 % 12.19 C
Sensor: Nr:Datum:Temp:Feuchte:Taupunkt:
Aussen-T/F 876 02-09-2020 00:55:00 13.3 C 93 % 12.19 C
877 02-09-2020 01:00:00 13.2 C 93 % 12.09 C
878 02-09-2020 01:05:00 13.3 C 93 % 12.19 C
879 02-09-2020 01:10:00 13.3 C 93 % 12.19 C
880 02-09-2020 01:15:00 13.2 C 93 % 12.09 C
881 02-09-2020 01:20:00 13.2 C 93 % 12.09 C
882 02-09-2020 01:25:00 13.2 C 93 % 12.09 C
883 02-09-2020 01:30:00 13.2 C 93 % 12.09 C
884 02-09-2020 01:35:00 13.2 C 93 % 12.09 C
885 02-09-2020 01:40:00 13.2 C 93 % 12.09 C
886 02-09-2020 01:45:00 13.2 C 93 % 12.09 C
887 02-09-2020 01:50:00 13.1 C 93 % 11.99 C
888 02-09-2020 01:55:00 13.1 C 93 % 11.99 C
889 02-09-2020 02:00:00 13.1 C 93 % 11.99 C
890 02-09-2020 02:05:00 13.1 C 93 % 11.99 C
891 02-09-2020 02:10:00 13 C 93 % 11.9 C
892 02-09-2020 02:15:00 13 C 93 % 11.9 C
893 02-09-2020 02:20:00 12.9 C 93 % 11.8 C
894 02-09-2020 02:25:00 12.9 C 93 % 11.8 C
895 02-09-2020 02:30:00 12.9 C 93 % 11.8 C
896 02-09-2020 02:35:00 12.8 C 93 % 11.7 C
897 02-09-2020 02:40:00 12.8 C 93 % 11.7 C
898 02-09-2020 02:45:00 12.8 C 93 % 11.7 C
899 02-09-2020 02:50:00 12.8 C 94 % 11.86 C
900 02-09-2020 02:55:00 12.8 C 94 % 11.86 C
Sensor: Nr:Datum:Temp:Feuchte:Taupunkt:
Aussen-T/F 901 02-09-2020 03:00:00 12.8 C 94 % 11.86 C
902 02-09-2020 03:05:00 12.8 C 94 % 11.86 C
903 02-09-2020 03:10:00 12.8 C 94 % 11.86 C
904 02-09-2020 03:15:00 12.8 C 94 % 11.86 C
905 02-09-2020 03:20:00 12.8 C 94 % 11.86 C
906 02-09-2020 03:25:00 12.8 C 94 % 11.86 C
907 02-09-2020 03:30:00 12.8 C 94 % 11.86 C
908 02-09-2020 03:35:00 12.8 C 94 % 11.86 C
909 02-09-2020 03:40:00 12.8 C 94 % 11.86 C
910 02-09-2020 03:45:00 12.8 C 94 % 11.86 C
911 02-09-2020 03:50:00 12.8 C 94 % 11.86 C
912 02-09-2020 03:55:00 12.9 C 94 % 11.96 C
913 02-09-2020 04:00:00 12.9 C 94 % 11.96 C
914 02-09-2020 04:05:00 12.8 C 94 % 11.86 C
915 02-09-2020 04:10:00 12.8 C 94 % 11.86 C
916 02-09-2020 04:15:00 12.8 C 94 % 11.86 C
917 02-09-2020 04:20:00 12.7 C 94 % 11.76 C
918 02-09-2020 04:25:00 12.7 C 94 % 11.76 C
919 02-09-2020 04:30:00 12.7 C 94 % 11.76 C
920 02-09-2020 04:35:00 12.7 C 94 % 11.76 C
921 02-09-2020 04:40:00 12.6 C 94 % 11.66 C
922 02-09-2020 04:45:00 12.6 C 94 % 11.66 C
923 02-09-2020 04:50:00 12.6 C 94 % 11.66 C
924 02-09-2020 04:55:00 12.6 C 94 % 11.66 C
925 02-09-2020 05:00:00 12.6 C 94 % 11.66 C
Sensor: Nr:Datum:Temp:Feuchte:Taupunkt:
Aussen-T/F 926 02-09-2020 05:05:00 12.6 C 94 % 11.66 C
927 02-09-2020 05:10:00 12.5 C 94 % 11.56 C
928 02-09-2020 05:15:00 12.5 C 94 % 11.56 C
929 02-09-2020 05:20:00 12.5 C 94 % 11.56 C
930 02-09-2020 05:25:00 12.5 C 95 % 11.72 C
931 02-09-2020 05:30:00 12.5 C 95 % 11.72 C
932 02-09-2020 05:35:00 12.5 C 95 % 11.72 C
933 02-09-2020 05:40:00 12.5 C 95 % 11.72 C
934 02-09-2020 05:45:00 12.5 C 95 % 11.72 C
935 02-09-2020 05:50:00 12.5 C 95 % 11.72 C
936 02-09-2020 05:55:00 12.5 C 95 % 11.72 C
937 02-09-2020 06:00:00 12.5 C 95 % 11.72 C
938 02-09-2020 06:05:00 12.5 C 95 % 11.72 C
939 02-09-2020 06:10:00 12.4 C 95 % 11.62 C
940 02-09-2020 06:15:00 12.4 C 95 % 11.62 C
941 02-09-2020 06:20:00 12.4 C 95 % 11.62 C
942 02-09-2020 06:25:00 12.4 C 95 % 11.62 C
943 02-09-2020 06:30:00 12.3 C 95 % 11.52 C
944 02-09-2020 06:35:00 12.3 C 95 % 11.52 C
945 02-09-2020 06:40:00 12.2 C 95 % 11.42 C
946 02-09-2020 06:45:00 12.1 C 95 % 11.32 C
947 02-09-2020 06:50:00 12.1 C 95 % 11.32 C
948 02-09-2020 06:55:00 12 C 95 % 11.22 C
949 02-09-2020 07:00:00 11.9 C 95 % 11.13 C
950 02-09-2020 07:05:00 11.8 C 95 % 11.03 C
Sensor: Nr:Datum:Temp:Feuchte:Taupunkt:
Aussen-T/F 951 02-09-2020 07:10:00 11.7 C 95 % 10.93 C
952 02-09-2020 07:15:00 11.7 C 95 % 10.93 C
953 02-09-2020 07:20:00 11.7 C 95 % 10.93 C
954 02-09-2020 07:25:00 11.6 C 95 % 10.83 C
955 02-09-2020 07:30:00 11.6 C 95 % 10.83 C
956 02-09-2020 07:35:00 11.5 C 95 % 10.73 C
957 02-09-2020 07:40:00 11.4 C 95 % 10.63 C
958 02-09-2020 07:45:00 11.4 C 95 % 10.63 C
959 02-09-2020 07:50:00 11.4 C 95 % 10.63 C
960 02-09-2020 07:55:00 11.4 C 95 % 10.63 C
961 02-09-2020 08:00:00 11.4 C 95 % 10.63 C
962 02-09-2020 08:05:00 11.3 C 95 % 10.53 C
963 02-09-2020 08:10:00 11.4 C 95 % 10.63 C
964 02-09-2020 08:15:00 11.4 C 95 % 10.63 C
965 02-09-2020 08:20:00 11.4 C 95 % 10.63 C
966 02-09-2020 08:25:00 11.4 C 95 % 10.63 C
967 02-09-2020 08:30:00 11.4 C 95 % 10.63 C
968 02-09-2020 08:35:00 11.5 C 96 % 10.88 C
969 02-09-2020 08:40:00 11.6 C 96 % 10.98 C
970 02-09-2020 08:45:00 11.6 C 96 % 10.98 C
971 02-09-2020 08:50:00 11.7 C 96 % 11.08 C
972 02-09-2020 08:55:00 11.8 C 96 % 11.18 C
973 02-09-2020 09:00:00 12.1 C 96 % 11.48 C
974 02-09-2020 09:05:00 12.2 C 96 % 11.58 C
975 02-09-2020 09:10:00 12.3 C 96 % 11.68 C
Sensor: Nr:Datum:Temp:Feuchte:Taupunkt:
Aussen-T/F 976 02-09-2020 09:15:00 12.4 C 96 % 11.78 C
977 02-09-2020 09:20:00 12.6 C 96 % 11.98 C
978 02-09-2020 09:25:00 12.7 C 96 % 12.08 C
979 02-09-2020 09:30:00 12.9 C 96 % 12.28 C
980 02-09-2020 09:35:00 13.1 C 96 % 12.48 C
981 02-09-2020 09:40:00 13.2 C 95 % 12.42 C
982 02-09-2020 09:45:00 13.3 C 95 % 12.52 C
983 02-09-2020 09:50:00 13.5 C 93 % 12.39 C
984 02-09-2020 09:55:00 13.7 C 93 % 12.59 C
985 02-09-2020 10:00:00 13.9 C 92 % 12.62 C
986 02-09-2020 10:05:00 14.1 C 91 % 12.65 C
987 02-09-2020 10:10:00 14.2 C 89 % 12.41 C
988 02-09-2020 10:15:00 14.3 C 89 % 12.51 C
989 02-09-2020 10:20:00 14.4 C 89 % 12.61 C
990 02-09-2020 10:25:00 14.6 C 88 % 12.64 C
991 02-09-2020 10:30:00 14.7 C 88 % 12.73 C
992 02-09-2020 10:35:00 14.8 C 88 % 12.83 C
993 02-09-2020 10:40:00 14.9 C 86 % 12.58 C
994 02-09-2020 10:45:00 15.1 C 86 % 12.78 C
995 02-09-2020 10:50:00 15.2 C 85 % 12.7 C
996 02-09-2020 10:55:00 15.4 C 84 % 12.71 C
997 02-09-2020 11:00:00 15.6 C 83 % 12.72 C
998 02-09-2020 11:05:00 15.8 C 83 % 12.92 C
999 02-09-2020 11:10:00 15.9 C 82 % 12.83 C
1000 02-09-2020 11:15:00 16.1 C 82 % 13.03 C
Sensor: Nr:Datum:Temp:Feuchte:Taupunkt:
Aussen-T/F 1001 02-09-2020 11:20:00 16.3 C 81 % 13.04 C
1002 02-09-2020 11:25:00 16.4 C 81 % 13.13 C
1003 02-09-2020 11:30:00 16.5 C 78 % 12.65 C
1004 02-09-2020 11:35:00 16.6 C 79 % 12.95 C
1005 02-09-2020 11:40:00 16.7 C 79 % 13.04 C
1006 02-09-2020 11:45:00 16.8 C 77 % 12.75 C
1007 02-09-2020 11:50:00 16.8 C 75 % 12.35 C
1008 02-09-2020 11:55:00 16.9 C 75 % 12.44 C
1009 02-09-2020 12:00:00 17.1 C 75 % 12.64 C
1010 02-09-2020 12:05:00 17.2 C 72 % 12.11 C
1011 02-09-2020 12:10:00 17.3 C 77 % 13.23 C
1012 02-09-2020 12:15:00 17.3 C 79 % 13.63 C
1013 02-09-2020 12:20:00 17.3 C 80 % 13.82 C
1014 02-09-2020 12:25:00 17.2 C 81 % 13.91 C
1015 02-09-2020 12:30:00 17.1 C 80 % 13.62 C
1016 02-09-2020 12:35:00 17 C 82 % 13.91 C
1017 02-09-2020 12:40:00 16.9 C 77 % 12.84 C
1018 02-09-2020 12:45:00 17.1 C 78 % 13.24 C
1019 02-09-2020 12:50:00 17.3 C 79 % 13.63 C
1020 02-09-2020 12:55:00 17.5 C 73 % 12.61 C
1021 02-09-2020 13:00:00 17.9 C 67 % 11.69 C
1022 02-09-2020 13:05:00 18.2 C 67 % 11.98 C
1023 02-09-2020 13:10:00 18.4 C 65 % 11.71 C
1024 02-09-2020 13:15:00 18.7 C 66 % 12.22 C
1025 02-09-2020 13:20:00 18.8 C 63 % 11.61 C
Sensor: Nr:Datum:Temp:Feuchte:Taupunkt:
Aussen-T/F 1026 02-09-2020 13:25:00 18.8 C 62 % 11.37 C
1027 02-09-2020 13:30:00 18.9 C 62 % 11.47 C
1028 02-09-2020 13:35:00 18.9 C 63 % 11.71 C
1029 02-09-2020 13:40:00 18.9 C 69 % 13.09 C
1030 02-09-2020 13:45:00 19 C 73 % 14.05 C
1031 02-09-2020 13:50:00 18.9 C 71 % 13.53 C
1032 02-09-2020 13:55:00 18.8 C 63 % 11.61 C
1033 02-09-2020 14:00:00 18.9 C 62 % 11.47 C
1034 02-09-2020 14:05:00 19.2 C 60 % 11.25 C
1035 02-09-2020 14:10:00 19.3 C 57 % 10.58 C
1036 02-09-2020 14:15:00 19.4 C 58 % 10.93 C
1037 02-09-2020 14:20:00 19.6 C 59 % 11.37 C
1038 02-09-2020 14:25:00 19.7 C 56 % 10.68 C
1039 02-09-2020 14:30:00 19.9 C 56 % 10.87 C
1040 02-09-2020 14:35:00 20 C 54 % 10.42 C
1041 02-09-2020 14:40:00 20.1 C 55 % 10.78 C
1042 02-09-2020 14:45:00 20.3 C 53 % 10.41 C
1043 02-09-2020 14:50:00 20.6 C 53 % 10.69 C
1044 02-09-2020 14:55:00 20.9 C 54 % 11.25 C
1045 02-09-2020 15:00:00 21 C 51 % 10.48 C
1046 02-09-2020 15:05:00 20.9 C 52 % 10.68 C
1047 02-09-2020 15:10:00 20.9 C 52 % 10.68 C
1048 02-09-2020 15:15:00 20.9 C 52 % 10.68 C
1049 02-09-2020 15:20:00 21 C 54 % 11.34 C
1050 02-09-2020 15:25:00 21 C 53 % 11.06 C
Sensor: Nr:Datum:Temp:Feuchte:Taupunkt:
Aussen-T/F 1051 02-09-2020 15:30:00 21 C 52 % 10.78 C
1052 02-09-2020 15:35:00 21 C 50 % 10.19 C
1053 02-09-2020 15:40:00 21.2 C 50 % 10.37 C
1054 02-09-2020 15:45:00 21.3 C 49 % 10.16 C
1055 02-09-2020 15:50:00 21.4 C 49 % 10.25 C
1056 02-09-2020 15:55:00 21.6 C 51 % 11.04 C
1057 02-09-2020 16:00:00 21.6 C 47 % 9.81 C
1058 02-09-2020 16:05:00 21.7 C 48 % 10.22 C
1059 02-09-2020 16:10:00 21.7 C 46 % 9.58 C
1060 02-09-2020 16:15:00 21.7 C 46 % 9.58 C
1061 02-09-2020 16:20:00 21.8 C 48 % 10.31 C
1062 02-09-2020 16:25:00 21.9 C 47 % 10.09 C
1063 02-09-2020 16:30:00 21.9 C 54 % 12.18 C
1064 02-09-2020 16:35:00 21.9 C 50 % 11.01 C
1065 02-09-2020 16:40:00 21.9 C 50 % 11.01 C
1066 02-09-2020 16:45:00 22.3 C 50 % 11.38 C
1067 02-09-2020 16:50:00 22.7 C 51 % 12.05 C
1068 02-09-2020 16:55:00 23.2 C 45 % 10.62 C
1069 02-09-2020 17:00:00 23.4 C 50 % 12.39 C
1070 02-09-2020 17:05:00 23.3 C 56 % 14.03 C
1071 02-09-2020 17:10:00 23.2 C 57 % 14.21 C
1072 02-09-2020 17:15:00 23.4 C 49 % 12.08 C
1073 02-09-2020 17:20:00 23.7 C 42 % 10.03 C
1074 02-09-2020 17:25:00 23.8 C 40 % 9.4 C
1075 02-09-2020 17:30:00 23.8 C 42 % 10.12 C
Sensor: Nr:Datum:Temp:Feuchte:Taupunkt:
Aussen-T/F 1076 02-09-2020 17:35:00 23.4 C 43 % 10.12 C
1077 02-09-2020 17:40:00 22.8 C 44 % 9.92 C
1078 02-09-2020 17:45:00 22.3 C 47 % 10.45 C
1079 02-09-2020 17:50:00 21.9 C 50 % 11.01 C
1080 02-09-2020 17:55:00 21.6 C 57 % 12.72 C
1081 02-09-2020 18:00:00 21.2 C 58 % 12.61 C
1082 02-09-2020 18:05:00 20.7 C 61 % 12.91 C
1083 02-09-2020 18:10:00 20.2 C 63 % 12.94 C
1084 02-09-2020 18:15:00 19.9 C 65 % 13.13 C
1085 02-09-2020 18:20:00 19.7 C 66 % 13.17 C
1086 02-09-2020 18:25:00 19.6 C 68 % 13.54 C
1087 02-09-2020 18:30:00 19.6 C 69 % 13.76 C
1088 02-09-2020 18:35:00 19.7 C 67 % 13.4 C
1089 02-09-2020 18:40:00 19.8 C 68 % 13.73 C
1090 02-09-2020 18:45:00 19.9 C 67 % 13.59 C
1091 02-09-2020 18:50:00 19.8 C 67 % 13.5 C
1092 02-09-2020 18:55:00 19.7 C 67 % 13.4 C
1093 02-09-2020 19:00:00 19.4 C 68 % 13.34 C
1094 02-09-2020 19:05:00 19.2 C 59 % 11 C
1095 02-09-2020 19:10:00 19.3 C 68 % 13.25 C
1096 02-09-2020 19:15:00 19.2 C 68 % 13.15 C
1097 02-09-2020 19:20:00 19.1 C 67 % 12.83 C
1098 02-09-2020 19:25:00 18.8 C 67 % 12.55 C
1099 02-09-2020 19:30:00 18.6 C 67 % 12.36 C
1100 02-09-2020 19:35:00 18.3 C 67 % 12.07 C
Sensor: Nr:Datum:Temp:Feuchte:Taupunkt:
Aussen-T/F 1101 02-09-2020 19:40:00 18.1 C 69 % 12.33 C
1102 02-09-2020 19:45:00 17.8 C 68 % 11.82 C
1103 02-09-2020 19:50:00 17.6 C 68 % 11.63 C
1104 02-09-2020 19:55:00 17.3 C 68 % 11.34 C
1105 02-09-2020 20:00:00 17.1 C 68 % 11.15 C
1106 02-09-2020 20:05:00 16.9 C 67 % 10.74 C
1107 02-09-2020 20:10:00 16.7 C 68 % 10.77 C
1108 02-09-2020 20:15:00 16.5 C 69 % 10.8 C
1109 02-09-2020 20:20:00 16.3 C 68 % 10.39 C
1110 02-09-2020 20:25:00 16.2 C 68 % 10.29 C
1111 02-09-2020 20:30:00 16.1 C 69 % 10.42 C
1112 02-09-2020 20:35:00 16.1 C 69 % 10.42 C
1113 02-09-2020 20:40:00 15.9 C 69 % 10.23 C
1114 02-09-2020 20:45:00 15.8 C 71 % 10.56 C
1115 02-09-2020 20:50:00 15.7 C 71 % 10.46 C
1116 02-09-2020 20:55:00 15.7 C 73 % 10.88 C
1117 02-09-2020 21:00:00 15.5 C 72 % 10.48 C
1118 02-09-2020 21:05:00 15.4 C 72 % 10.38 C
1119 02-09-2020 21:10:00 15.3 C 74 % 10.7 C
1120 02-09-2020 21:15:00 15.2 C 75 % 10.8 C
1121 02-09-2020 21:20:00 15.1 C 76 % 10.9 C
1122 02-09-2020 21:25:00 14.8 C 76 % 10.61 C
1123 02-09-2020 21:30:00 14.7 C 77 % 10.71 C
1124 02-09-2020 21:35:00 14.5 C 77 % 10.52 C
1125 02-09-2020 21:40:00 14.4 C 79 % 10.81 C
Sensor: Nr:Datum:Temp:Feuchte:Taupunkt:
Aussen-T/F 1126 02-09-2020 21:45:00 14.3 C 79 % 10.71 C
1127 02-09-2020 21:50:00 14.2 C 81 % 10.99 C
1128 02-09-2020 21:55:00 14.2 C 81 % 10.99 C
1129 02-09-2020 22:00:00 14.2 C 81 % 10.99 C
1130 02-09-2020 22:05:00 14.1 C 82 % 11.08 C
1131 02-09-2020 22:10:00 14.1 C 82 % 11.08 C
1132 02-09-2020 22:15:00 14.2 C 83 % 11.36 C
1133 02-09-2020 22:20:00 14.2 C 82 % 11.17 C
1134 02-09-2020 22:25:00 14.2 C 82 % 11.17 C
1135 02-09-2020 22:30:00 14.2 C 83 % 11.36 C
1136 02-09-2020 22:35:00 14.2 C 83 % 11.36 C
1137 02-09-2020 22:40:00 14.2 C 83 % 11.36 C
1138 02-09-2020 22:45:00 14.2 C 83 % 11.36 C
1139 02-09-2020 22:50:00 14.1 C 82 % 11.08 C
1140 02-09-2020 22:55:00 14.1 C 83 % 11.26 C
1141 02-09-2020 23:00:00 14 C 83 % 11.16 C
1142 02-09-2020 23:05:00 13.9 C 83 % 11.06 C
1143 02-09-2020 23:10:00 13.9 C 83 % 11.06 C
1144 02-09-2020 23:15:00 13.8 C 83 % 10.97 C
1145 02-09-2020 23:20:00 13.7 C 82 % 10.69 C
1146 02-09-2020 23:25:00 13.6 C 83 % 10.77 C
1147 02-09-2020 23:30:00 13.5 C 82 % 10.49 C
1148 02-09-2020 23:35:00 13.3 C 82 % 10.3 C
1149 02-09-2020 23:40:00 13.2 C 83 % 10.38 C
1150 02-09-2020 23:45:00 13.2 C 83 % 10.38 C
Sensor: Nr:Datum:Temp:Feuchte:Taupunkt:
Aussen-T/F 1151 02-09-2020 23:50:00 13 C 82 % 10 C
1152 02-09-2020 23:55:00 12.9 C 83 % 10.09 C
1153 03-09-2020 00:00:00 12.8 C 84 % 10.17 C
1154 03-09-2020 00:05:00 12.8 C 84 % 10.17 C
1155 03-09-2020 00:10:00 12.7 C 84 % 10.07 C
1156 03-09-2020 00:15:00 12.6 C 84 % 9.97 C
1157 03-09-2020 00:20:00 12.4 C 85 % 9.95 C
1158 03-09-2020 00:25:00 12.4 C 85 % 9.95 C
1159 03-09-2020 00:30:00 12.3 C 85 % 9.85 C
1160 03-09-2020 00:35:00 12.2 C 85 % 9.76 C
1161 03-09-2020 00:40:00 12.1 C 86 % 9.83 C
1162 03-09-2020 00:45:00 11.9 C 86 % 9.64 C
1163 03-09-2020 00:50:00 11.9 C 86 % 9.64 C
1164 03-09-2020 00:55:00 11.8 C 86 % 9.54 C
1165 03-09-2020 01:00:00 11.8 C 87 % 9.71 C
1166 03-09-2020 01:05:00 11.7 C 87 % 9.61 C
1167 03-09-2020 01:10:00 11.6 C 87 % 9.51 C
1168 03-09-2020 01:15:00 11.6 C 87 % 9.51 C
1169 03-09-2020 01:20:00 11.5 C 87 % 9.41 C
1170 03-09-2020 01:25:00 11.4 C 88 % 9.49 C
1171 03-09-2020 01:30:00 11.3 C 88 % 9.39 C
1172 03-09-2020 01:35:00 11.3 C 88 % 9.39 C
1173 03-09-2020 01:40:00 11.2 C 88 % 9.29 C
1174 03-09-2020 01:45:00 11.2 C 88 % 9.29 C
1175 03-09-2020 01:50:00 11.1 C 89 % 9.36 C
Sensor: Nr:Datum:Temp:Feuchte:Taupunkt:
Aussen-T/F 1176 03-09-2020 01:55:00 10.9 C 89 % 9.16 C
1177 03-09-2020 02:00:00 10.8 C 89 % 9.06 C
1178 03-09-2020 02:05:00 10.8 C 89 % 9.06 C
1179 03-09-2020 02:10:00 10.7 C 89 % 8.96 C
1180 03-09-2020 02:15:00 10.7 C 89 % 8.96 C
1181 03-09-2020 02:20:00 10.6 C 90 % 9.03 C
1182 03-09-2020 02:25:00 10.6 C 90 % 9.03 C
1183 03-09-2020 02:30:00 10.5 C 90 % 8.93 C
1184 03-09-2020 02:35:00 10.4 C 90 % 8.83 C
1185 03-09-2020 02:40:00 10.4 C 90 % 8.83 C
1186 03-09-2020 02:45:00 10.4 C 91 % 9 C
1187 03-09-2020 02:50:00 10.4 C 91 % 9 C
1188 03-09-2020 02:55:00 10.4 C 91 % 9 C
1189 03-09-2020 03:00:00 10.4 C 91 % 9 C
1190 03-09-2020 03:05:00 10.4 C 91 % 9 C
1191 03-09-2020 03:10:00 10.4 C 91 % 9 C
1192 03-09-2020 03:15:00 10.3 C 91 % 8.9 C
1193 03-09-2020 03:20:00 10.3 C 91 % 8.9 C
1194 03-09-2020 03:25:00 10.3 C 92 % 9.06 C
1195 03-09-2020 03:30:00 10.2 C 92 % 8.96 C
1196 03-09-2020 03:35:00 10.2 C 92 % 8.96 C
1197 03-09-2020 03:40:00 10.2 C 92 % 8.96 C
1198 03-09-2020 03:45:00 10.2 C 92 % 8.96 C
1199 03-09-2020 03:50:00 10.2 C 92 % 8.96 C
1200 03-09-2020 03:55:00 10.2 C 92 % 8.96 C
Sensor: Nr:Datum:Temp:Feuchte:Taupunkt:
Aussen-T/F 1201 03-09-2020 04:00:00 10.1 C 92 % 8.86 C
1202 03-09-2020 04:05:00 10.1 C 92 % 8.86 C
1203 03-09-2020 04:10:00 10.1 C 92 % 8.86 C
1204 03-09-2020 04:15:00 10 C 92 % 8.76 C
1205 03-09-2020 04:20:00 10 C 92 % 8.76 C
1206 03-09-2020 04:25:00 10.1 C 93 % 9.02 C
1207 03-09-2020 04:30:00 10.1 C 93 % 9.02 C
1208 03-09-2020 04:35:00 10.1 C 93 % 9.02 C
1209 03-09-2020 04:40:00 10.1 C 93 % 9.02 C
1210 03-09-2020 04:45:00 10.1 C 93 % 9.02 C
1211 03-09-2020 04:50:00 10 C 93 % 8.92 C
1212 03-09-2020 04:55:00 9.9 C 93 % 8.82 C
1213 03-09-2020 05:00:00 9.9 C 93 % 8.82 C
1214 03-09-2020 05:05:00 9.9 C 93 % 8.82 C
1215 03-09-2020 05:10:00 9.8 C 93 % 8.72 C
1216 03-09-2020 05:15:00 9.8 C 93 % 8.72 C
1217 03-09-2020 05:20:00 9.7 C 93 % 8.62 C
1218 03-09-2020 05:25:00 9.7 C 93 % 8.62 C
1219 03-09-2020 05:30:00 9.7 C 93 % 8.62 C
1220 03-09-2020 05:35:00 9.8 C 94 % 8.88 C
1221 03-09-2020 05:40:00 9.8 C 94 % 8.88 C
1222 03-09-2020 05:45:00 9.9 C 94 % 8.98 C
1223 03-09-2020 05:50:00 10 C 94 % 9.08 C
1224 03-09-2020 05:55:00 10.1 C 94 % 9.18 C
1225 03-09-2020 06:00:00 10.1 C 94 % 9.18 C
Sensor: Nr:Datum:Temp:Feuchte:Taupunkt:
Aussen-T/F 1226 03-09-2020 06:05:00 10.1 C 94 % 9.18 C
1227 03-09-2020 06:10:00 10.1 C 94 % 9.18 C
1228 03-09-2020 06:15:00 10.1 C 94 % 9.18 C
1229 03-09-2020 06:20:00 10.1 C 94 % 9.18 C
1230 03-09-2020 06:25:00 10.1 C 94 % 9.18 C
1231 03-09-2020 06:30:00 10.2 C 94 % 9.28 C
1232 03-09-2020 06:35:00 10.2 C 94 % 9.28 C
1233 03-09-2020 06:40:00 10.2 C 94 % 9.28 C
1234 03-09-2020 06:45:00 10.2 C 94 % 9.28 C
1235 03-09-2020 06:50:00 10.2 C 94 % 9.28 C
1236 03-09-2020 06:55:00 10.1 C 94 % 9.18 C
1237 03-09-2020 07:00:00 10.2 C 94 % 9.28 C
1238 03-09-2020 07:05:00 10.2 C 94 % 9.28 C
1239 03-09-2020 07:10:00 10.2 C 94 % 9.28 C
1240 03-09-2020 07:15:00 10.3 C 94 % 9.38 C
1241 03-09-2020 07:20:00 10.3 C 94 % 9.38 C
1242 03-09-2020 07:25:00 10.3 C 94 % 9.38 C
1243 03-09-2020 07:30:00 10.4 C 94 % 9.48 C
1244 03-09-2020 07:35:00 10.4 C 94 % 9.48 C
1245 03-09-2020 07:40:00 10.4 C 94 % 9.48 C
1246 03-09-2020 07:45:00 10.5 C 94 % 9.58 C
1247 03-09-2020 07:50:00 10.5 C 94 % 9.58 C
1248 03-09-2020 07:55:00 10.6 C 94 % 9.68 C
1249 03-09-2020 08:00:00 10.7 C 94 % 9.77 C
1250 03-09-2020 08:05:00 10.7 C 94 % 9.77 C
Sensor: Nr:Datum:Temp:Feuchte:Taupunkt:
Aussen-T/F 1251 03-09-2020 08:10:00 10.8 C 94 % 9.87 C
1252 03-09-2020 08:15:00 10.9 C 94 % 9.97 C
1253 03-09-2020 08:20:00 11.1 C 94 % 10.17 C
1254 03-09-2020 08:25:00 11.2 C 94 % 10.27 C
1255 03-09-2020 08:30:00 11.3 C 93 % 10.21 C
1256 03-09-2020 08:35:00 11.4 C 93 % 10.31 C
1257 03-09-2020 08:40:00 11.6 C 93 % 10.51 C
1258 03-09-2020 08:45:00 11.7 C 92 % 10.44 C
1259 03-09-2020 08:50:00 11.8 C 91 % 10.38 C
1260 03-09-2020 08:55:00 11.9 C 91 % 10.48 C
1261 03-09-2020 09:00:00 12 C 90 % 10.41 C
1262 03-09-2020 09:05:00 12.1 C 90 % 10.51 C
1263 03-09-2020 09:10:00 12.2 C 90 % 10.61 C
1264 03-09-2020 09:15:00 12.3 C 89 % 10.54 C
1265 03-09-2020 09:20:00 12.5 C 89 % 10.74 C
1266 03-09-2020 09:25:00 12.7 C 89 % 10.94 C
1267 03-09-2020 09:30:00 12.9 C 89 % 11.13 C
1268 03-09-2020 09:35:00 13 C 88 % 11.06 C
1269 03-09-2020 09:40:00 13.2 C 88 % 11.26 C
1270 03-09-2020 09:45:00 13.3 C 88 % 11.36 C
1271 03-09-2020 09:50:00 13.4 C 87 % 11.28 C
1272 03-09-2020 09:55:00 13.6 C 87 % 11.48 C
1273 03-09-2020 10:00:00 13.7 C 86 % 11.4 C
1274 03-09-2020 10:05:00 13.8 C 85 % 11.32 C
1275 03-09-2020 10:10:00 13.9 C 86 % 11.6 C
Sensor: Nr:Datum:Temp:Feuchte:Taupunkt:
Aussen-T/F 1276 03-09-2020 10:15:00 14.1 C 85 % 11.62 C
1277 03-09-2020 10:20:00 14.2 C 84 % 11.54 C
1278 03-09-2020 10:25:00 14.4 C 84 % 11.73 C
1279 03-09-2020 10:30:00 14.7 C 84 % 12.03 C
1280 03-09-2020 10:35:00 14.9 C 83 % 12.04 C
1281 03-09-2020 10:40:00 15.1 C 83 % 12.24 C
1282 03-09-2020 10:45:00 15.3 C 82 % 12.25 C
1283 03-09-2020 10:50:00 15.5 C 82 % 12.44 C
1284 03-09-2020 10:55:00 15.7 C 82 % 12.64 C
1285 03-09-2020 11:00:00 16 C 81 % 12.74 C
1286 03-09-2020 11:05:00 16.3 C 80 % 12.85 C
1287 03-09-2020 11:10:00 16.7 C 78 % 12.85 C
1288 03-09-2020 11:15:00 17.1 C 77 % 13.04 C
1289 03-09-2020 11:20:00 17.4 C 75 % 12.93 C
1290 03-09-2020 11:25:00 17.7 C 74 % 13.01 C
1291 03-09-2020 11:30:00 18 C 72 % 12.88 C
1292 03-09-2020 11:35:00 18.2 C 72 % 13.07 C
1293 03-09-2020 11:40:00 18.4 C 71 % 13.05 C
1294 03-09-2020 11:45:00 18.5 C 69 % 12.71 C
1295 03-09-2020 11:50:00 18.6 C 70 % 13.02 C
1296 03-09-2020 11:55:00 18.7 C 70 % 13.12 C
1297 03-09-2020 12:00:00 18.8 C 69 % 13 C
1298 03-09-2020 12:05:00 18.8 C 68 % 12.77 C
1299 03-09-2020 12:10:00 19.1 C 69 % 13.28 C
1300 03-09-2020 12:15:00 19.2 C 68 % 13.15 C
Sensor: Nr:Datum:Temp:Feuchte:Taupunkt:
Aussen-T/F 1301 03-09-2020 12:20:00 19.2 C 68 % 13.15 C
1302 03-09-2020 12:25:00 19.3 C 67 % 13.02 C
1303 03-09-2020 12:30:00 19.4 C 66 % 12.89 C
1304 03-09-2020 12:35:00 19.5 C 66 % 12.98 C
1305 03-09-2020 12:40:00 19.6 C 66 % 13.08 C
1306 03-09-2020 12:45:00 19.7 C 65 % 12.94 C
1307 03-09-2020 12:50:00 19.7 C 66 % 13.17 C
1308 03-09-2020 12:55:00 19.7 C 65 % 12.94 C
1309 03-09-2020 13:00:00 19.7 C 64 % 12.7 C
1310 03-09-2020 13:05:00 19.6 C 66 % 13.08 C
1311 03-09-2020 13:10:00 19.5 C 66 % 12.98 C
1312 03-09-2020 13:15:00 19.5 C 66 % 12.98 C
1313 03-09-2020 13:20:00 19.3 C 66 % 12.79 C
1314 03-09-2020 13:25:00 19.3 C 67 % 13.02 C
1315 03-09-2020 13:30:00 19.1 C 69 % 13.28 C
1316 03-09-2020 13:35:00 18.9 C 73 % 13.96 C
1317 03-09-2020 13:40:00 18.8 C 76 % 14.48 C
1318 03-09-2020 13:45:00 18.6 C 77 % 14.49 C
1319 03-09-2020 13:50:00 18.4 C 79 % 14.69 C
1320 03-09-2020 13:55:00 18.3 C 79 % 14.6 C
1321 03-09-2020 14:00:00 18.1 C 79 % 14.4 C
1322 03-09-2020 14:05:00 17.9 C 78 % 14.01 C
1323 03-09-2020 14:10:00 17.8 C 79 % 14.11 C
1324 03-09-2020 14:15:00 17.7 C 78 % 13.82 C
1325 03-09-2020 14:20:00 17.6 C 79 % 13.92 C
Sensor: Nr:Datum:Temp:Feuchte:Taupunkt:
Aussen-T/F 1326 03-09-2020 14:25:00 17.6 C 79 % 13.92 C
1327 03-09-2020 14:30:00 17.5 C 78 % 13.62 C
1328 03-09-2020 14:35:00 17.6 C 79 % 13.92 C
1329 03-09-2020 14:40:00 17.7 C 79 % 14.01 C
1330 03-09-2020 14:45:00 17.7 C 79 % 14.01 C
1331 03-09-2020 14:50:00 17.8 C 78 % 13.91 C
1332 03-09-2020 14:55:00 17.8 C 79 % 14.11 C
1333 03-09-2020 15:00:00 17.9 C 79 % 14.21 C
1334 03-09-2020 15:05:00 17.9 C 79 % 14.21 C
1335 03-09-2020 15:10:00 17.9 C 80 % 14.4 C
1336 03-09-2020 15:15:00 18.1 C 82 % 14.98 C
1337 03-09-2020 15:20:00 18.1 C 82 % 14.98 C
1338 03-09-2020 15:25:00 18.2 C 82 % 15.08 C
1339 03-09-2020 15:30:00 18.1 C 79 % 14.4 C
1340 03-09-2020 15:35:00 18.1 C 80 % 14.6 C
1341 03-09-2020 15:40:00 18.1 C 79 % 14.4 C
1342 03-09-2020 15:45:00 18.1 C 78 % 14.21 C
1343 03-09-2020 15:50:00 17.9 C 80 % 14.4 C
1344 03-09-2020 15:55:00 17.5 C 82 % 14.39 C
1345 03-09-2020 16:00:00 17.2 C 84 % 14.47 C
1346 03-09-2020 16:05:00 16.7 C 85 % 14.17 C
1347 03-09-2020 16:10:00 16.4 C 87 % 14.23 C
1348 03-09-2020 16:15:00 16.2 C 89 % 14.39 C
1349 03-09-2020 16:20:00 16.1 C 89 % 14.29 C
1350 03-09-2020 16:25:00 16.1 C 90 % 14.46 C
Sensor: Nr:Datum:Temp:Feuchte:Taupunkt:
Aussen-T/F 1351 03-09-2020 16:30:00 16.1 C 91 % 14.63 C
1352 03-09-2020 16:35:00 16.1 C 91 % 14.63 C
1353 03-09-2020 16:40:00 16 C 91 % 14.53 C
1354 03-09-2020 16:45:00 15.8 C 91 % 14.33 C
1355 03-09-2020 16:50:00 15.8 C 92 % 14.5 C
1356 03-09-2020 16:55:00 15.9 C 92 % 14.6 C
1357 03-09-2020 17:00:00 15.9 C 93 % 14.77 C
1358 03-09-2020 17:05:00 15.9 C 93 % 14.77 C
1359 03-09-2020 17:10:00 15.9 C 92 % 14.6 C
1360 03-09-2020 17:15:00 15.9 C 92 % 14.6 C
1361 03-09-2020 17:20:00 15.8 C 92 % 14.5 C
1362 03-09-2020 17:25:00 15.8 C 92 % 14.5 C
1363 03-09-2020 17:30:00 15.8 C 93 % 14.67 C
1364 03-09-2020 17:35:00 15.8 C 93 % 14.67 C
1365 03-09-2020 17:40:00 15.9 C 93 % 14.77 C
1366 03-09-2020 17:45:00 15.8 C 93 % 14.67 C
1367 03-09-2020 17:50:00 15.9 C 93 % 14.77 C
1368 03-09-2020 17:55:00 15.9 C 93 % 14.77 C
1369 03-09-2020 18:00:00 15.9 C 93 % 14.77 C
1370 03-09-2020 18:05:00 15.9 C 93 % 14.77 C
1371 03-09-2020 18:10:00 15.9 C 93 % 14.77 C
1372 03-09-2020 18:15:00 15.9 C 93 % 14.77 C
1373 03-09-2020 18:20:00 16.1 C 94 % 15.13 C
1374 03-09-2020 18:25:00 16.2 C 94 % 15.23 C
1375 03-09-2020 18:30:00 16.3 C 94 % 15.33 C
Sensor: Nr:Datum:Temp:Feuchte:Taupunkt:
Aussen-T/F 1376 03-09-2020 18:35:00 16.3 C 94 % 15.33 C
1377 03-09-2020 18:40:00 16.3 C 94 % 15.33 C
1378 03-09-2020 18:45:00 16.2 C 93 % 15.07 C
1379 03-09-2020 18:50:00 16.2 C 93 % 15.07 C
1380 03-09-2020 18:55:00 16.2 C 93 % 15.07 C
1381 03-09-2020 19:00:00 16.1 C 93 % 14.97 C
1382 03-09-2020 19:05:00 16.1 C 93 % 14.97 C
1383 03-09-2020 19:10:00 16.1 C 94 % 15.13 C
1384 03-09-2020 19:15:00 16.1 C 94 % 15.13 C
1385 03-09-2020 19:20:00 16.1 C 94 % 15.13 C
1386 03-09-2020 19:25:00 16 C 94 % 15.03 C
1387 03-09-2020 19:30:00 15.9 C 94 % 14.94 C
1388 03-09-2020 19:35:00 15.9 C 94 % 14.94 C
1389 03-09-2020 19:40:00 15.8 C 94 % 14.84 C
1390 03-09-2020 19:45:00 15.8 C 94 % 14.84 C
1391 03-09-2020 19:50:00 15.8 C 94 % 14.84 C
1392 03-09-2020 19:55:00 15.7 C 94 % 14.74 C
1393 03-09-2020 20:00:00 15.7 C 94 % 14.74 C
1394 03-09-2020 20:05:00 15.7 C 94 % 14.74 C
1395 03-09-2020 20:10:00 15.6 C 94 % 14.64 C
1396 03-09-2020 20:15:00 15.6 C 94 % 14.64 C
1397 03-09-2020 20:20:00 15.6 C 94 % 14.64 C
1398 03-09-2020 20:25:00 15.6 C 94 % 14.64 C
1399 03-09-2020 20:30:00 15.5 C 94 % 14.54 C
1400 03-09-2020 20:35:00 15.4 C 94 % 14.44 C
Sensor: Nr:Datum:Temp:Feuchte:Taupunkt:
Aussen-T/F 1401 03-09-2020 20:40:00 15.4 C 94 % 14.44 C
1402 03-09-2020 20:45:00 15.3 C 94 % 14.34 C
1403 03-09-2020 20:50:00 15.3 C 94 % 14.34 C
1404 03-09-2020 20:55:00 15.3 C 94 % 14.34 C
1405 03-09-2020 21:00:00 15.3 C 94 % 14.34 C
1406 03-09-2020 21:05:00 15.3 C 94 % 14.34 C
1407 03-09-2020 21:10:00 15.2 C 94 % 14.24 C
1408 03-09-2020 21:15:00 15.2 C 94 % 14.24 C
1409 03-09-2020 21:20:00 15.2 C 94 % 14.24 C
1410 03-09-2020 21:25:00 15.3 C 95 % 14.5 C
1411 03-09-2020 21:30:00 15.3 C 95 % 14.5 C
1412 03-09-2020 21:35:00 15.3 C 95 % 14.5 C
1413 03-09-2020 21:40:00 15.3 C 95 % 14.5 C
1414 03-09-2020 21:45:00 15.3 C 95 % 14.5 C
1415 03-09-2020 21:50:00 15.3 C 95 % 14.5 C
1416 03-09-2020 21:55:00 15.4 C 95 % 14.6 C
1417 03-09-2020 22:00:00 15.4 C 95 % 14.6 C
1418 03-09-2020 22:05:00 15.5 C 95 % 14.7 C
1419 03-09-2020 22:10:00 15.6 C 94 % 14.64 C
1420 03-09-2020 22:15:00 15.6 C 94 % 14.64 C
1421 03-09-2020 22:20:00 15.6 C 95 % 14.8 C
1422 03-09-2020 22:25:00 15.7 C 95 % 14.9 C
1423 03-09-2020 22:30:00 15.7 C 94 % 14.74 C
1424 03-09-2020 22:35:00 15.7 C 94 % 14.74 C
1425 03-09-2020 22:40:00 15.7 C 94 % 14.74 C
Sensor: Nr:Datum:Temp:Feuchte:Taupunkt:
Aussen-T/F 1426 03-09-2020 22:45:00 15.7 C 94 % 14.74 C
1427 03-09-2020 22:50:00 15.7 C 94 % 14.74 C
1428 03-09-2020 22:55:00 15.7 C 94 % 14.74 C
1429 03-09-2020 23:00:00 15.7 C 94 % 14.74 C
1430 03-09-2020 23:05:00 15.7 C 94 % 14.74 C
1431 03-09-2020 23:10:00 15.7 C 94 % 14.74 C
1432 03-09-2020 23:15:00 15.7 C 94 % 14.74 C
1433 03-09-2020 23:20:00 15.7 C 94 % 14.74 C
1434 03-09-2020 23:25:00 15.7 C 94 % 14.74 C
1435 03-09-2020 23:30:00 15.7 C 94 % 14.74 C
1436 03-09-2020 23:35:00 15.8 C 94 % 14.84 C
1437 03-09-2020 23:40:00 15.8 C 94 % 14.84 C
1438 03-09-2020 23:45:00 15.8 C 94 % 14.84 C
1439 03-09-2020 23:50:00 15.9 C 94 % 14.94 C
1440 03-09-2020 23:55:00 15.9 C 94 % 14.94 C
1441 04-09-2020 00:00:00 15.8 C 94 % 14.84 C
1442 04-09-2020 00:05:00 15.8 C 94 % 14.84 C
1443 04-09-2020 00:10:00 15.8 C 94 % 14.84 C
1444 04-09-2020 00:15:00 15.8 C 94 % 14.84 C
1445 04-09-2020 00:20:00 15.8 C 94 % 14.84 C
1446 04-09-2020 00:25:00 15.8 C 94 % 14.84 C
1447 04-09-2020 00:30:00 15.8 C 94 % 14.84 C
1448 04-09-2020 00:35:00 15.8 C 94 % 14.84 C
1449 04-09-2020 00:40:00 15.8 C 94 % 14.84 C
1450 04-09-2020 00:45:00 15.9 C 94 % 14.94 C
Sensor: Nr:Datum:Temp:Feuchte:Taupunkt:
Aussen-T/F 1451 04-09-2020 00:50:00 15.9 C 94 % 14.94 C
1452 04-09-2020 00:55:00 15.9 C 94 % 14.94 C
1453 04-09-2020 01:00:00 15.9 C 94 % 14.94 C
1454 04-09-2020 01:05:00 15.8 C 94 % 14.84 C
1455 04-09-2020 01:10:00 15.8 C 94 % 14.84 C
1456 04-09-2020 01:15:00 15.8 C 94 % 14.84 C
1457 04-09-2020 01:20:00 15.8 C 94 % 14.84 C
1458 04-09-2020 01:25:00 15.7 C 94 % 14.74 C
1459 04-09-2020 01:30:00 15.7 C 94 % 14.74 C
1460 04-09-2020 01:35:00 15.7 C 94 % 14.74 C
1461 04-09-2020 01:40:00 15.8 C 94 % 14.84 C
1462 04-09-2020 01:45:00 15.8 C 94 % 14.84 C
1463 04-09-2020 01:50:00 15.8 C 94 % 14.84 C
1464 04-09-2020 01:55:00 15.8 C 94 % 14.84 C
1465 04-09-2020 02:00:00 15.8 C 93 % 14.67 C
1466 04-09-2020 02:05:00 15.7 C 93 % 14.57 C
1467 04-09-2020 02:10:00 15.7 C 93 % 14.57 C
1468 04-09-2020 02:15:00 15.7 C 93 % 14.57 C
1469 04-09-2020 02:20:00 15.7 C 93 % 14.57 C
1470 04-09-2020 02:25:00 15.7 C 93 % 14.57 C
1471 04-09-2020 02:30:00 15.8 C 93 % 14.67 C
1472 04-09-2020 02:35:00 15.8 C 93 % 14.67 C
1473 04-09-2020 02:40:00 15.9 C 93 % 14.77 C
1474 04-09-2020 02:45:00 16 C 93 % 14.87 C
1475 04-09-2020 02:50:00 16.1 C 92 % 14.8 C
Sensor: Nr:Datum:Temp:Feuchte:Taupunkt:
Aussen-T/F 1476 04-09-2020 02:55:00 16.2 C 93 % 15.07 C
1477 04-09-2020 03:00:00 16.3 C 93 % 15.17 C
1478 04-09-2020 03:05:00 16.4 C 93 % 15.27 C
1479 04-09-2020 03:10:00 16.4 C 92 % 15.1 C
1480 04-09-2020 03:15:00 16.4 C 92 % 15.1 C
1481 04-09-2020 03:20:00 16.4 C 92 % 15.1 C
1482 04-09-2020 03:25:00 16.4 C 92 % 15.1 C
1483 04-09-2020 03:30:00 16.4 C 91 % 14.93 C
1484 04-09-2020 03:35:00 16.5 C 91 % 15.03 C
1485 04-09-2020 03:40:00 16.6 C 91 % 15.13 C
1486 04-09-2020 03:45:00 16.6 C 91 % 15.13 C
1487 04-09-2020 03:50:00 16.6 C 91 % 15.13 C
1488 04-09-2020 03:55:00 16.6 C 91 % 15.13 C
1489 04-09-2020 04:00:00 16.6 C 91 % 15.13 C
1490 04-09-2020 04:05:00 16.6 C 90 % 14.95 C
1491 04-09-2020 04:10:00 16.6 C 90 % 14.95 C
1492 04-09-2020 04:15:00 16.6 C 90 % 14.95 C
1493 04-09-2020 04:20:00 16.7 C 90 % 15.05 C
1494 04-09-2020 04:25:00 16.8 C 91 % 15.32 C
1495 04-09-2020 04:30:00 16.8 C 90 % 15.15 C
1496 04-09-2020 04:35:00 16.8 C 90 % 15.15 C
1497 04-09-2020 04:40:00 16.8 C 90 % 15.15 C
1498 04-09-2020 04:45:00 16.7 C 90 % 15.05 C
1499 04-09-2020 04:50:00 16.7 C 90 % 15.05 C
1500 04-09-2020 04:55:00 16.7 C 90 % 15.05 C
Sensor: Nr:Datum:Temp:Feuchte:Taupunkt:
Aussen-T/F 1501 04-09-2020 05:00:00 16.7 C 90 % 15.05 C
1502 04-09-2020 05:05:00 16.7 C 90 % 15.05 C
1503 04-09-2020 05:10:00 16.7 C 90 % 15.05 C
1504 04-09-2020 05:15:00 16.7 C 90 % 15.05 C
1505 04-09-2020 05:20:00 16.7 C 90 % 15.05 C
1506 04-09-2020 05:25:00 16.7 C 90 % 15.05 C
1507 04-09-2020 05:30:00 16.7 C 90 % 15.05 C
1508 04-09-2020 05:35:00 16.7 C 91 % 15.22 C
1509 04-09-2020 05:40:00 16.7 C 91 % 15.22 C
1510 04-09-2020 05:45:00 16.7 C 91 % 15.22 C
1511 04-09-2020 05:50:00 16.7 C 91 % 15.22 C
1512 04-09-2020 05:55:00 16.7 C 91 % 15.22 C
1513 04-09-2020 06:00:00 16.6 C 91 % 15.13 C
1514 04-09-2020 06:05:00 16.6 C 90 % 14.95 C
1515 04-09-2020 06:10:00 16.6 C 90 % 14.95 C
1516 04-09-2020 06:15:00 16.5 C 90 % 14.85 C
1517 04-09-2020 06:20:00 16.5 C 90 % 14.85 C
1518 04-09-2020 06:25:00 16.5 C 90 % 14.85 C
1519 04-09-2020 06:30:00 16.6 C 90 % 14.95 C
1520 04-09-2020 06:35:00 16.6 C 90 % 14.95 C
1521 04-09-2020 06:40:00 16.6 C 89 % 14.78 C
1522 04-09-2020 06:45:00 16.6 C 90 % 14.95 C
1523 04-09-2020 06:50:00 16.6 C 90 % 14.95 C
1524 04-09-2020 06:55:00 16.7 C 90 % 15.05 C
1525 04-09-2020 07:00:00 16.7 C 89 % 14.88 C
Sensor: Nr:Datum:Temp:Feuchte:Taupunkt:
Aussen-T/F 1526 04-09-2020 07:05:00 16.7 C 89 % 14.88 C
1527 04-09-2020 07:10:00 16.7 C 89 % 14.88 C
1528 04-09-2020 07:15:00 16.7 C 89 % 14.88 C
1529 04-09-2020 07:20:00 16.8 C 89 % 14.98 C
1530 04-09-2020 07:25:00 16.8 C 89 % 14.98 C
1531 04-09-2020 07:30:00 16.8 C 89 % 14.98 C
1532 04-09-2020 07:35:00 16.8 C 89 % 14.98 C
1533 04-09-2020 07:40:00 16.8 C 88 % 14.8 C
1534 04-09-2020 07:45:00 16.8 C 89 % 14.98 C
1535 04-09-2020 07:50:00 16.9 C 89 % 15.08 C
1536 04-09-2020 07:55:00 16.9 C 89 % 15.08 C
1537 04-09-2020 08:00:00 17 C 90 % 15.35 C
1538 04-09-2020 08:05:00 17 C 90 % 15.35 C
1539 04-09-2020 08:10:00 17.1 C 89 % 15.27 C
1540 04-09-2020 08:15:00 17.1 C 89 % 15.27 C
1541 04-09-2020 08:20:00 17.1 C 89 % 15.27 C
1542 04-09-2020 08:25:00 17.1 C 89 % 15.27 C
1543 04-09-2020 08:30:00 17.2 C 89 % 15.37 C
1544 04-09-2020 08:35:00 17.2 C 89 % 15.37 C
1545 04-09-2020 08:40:00 17.2 C 88 % 15.2 C
1546 04-09-2020 08:45:00 17.3 C 88 % 15.29 C
1547 04-09-2020 08:50:00 17.4 C 89 % 15.57 C
1548 04-09-2020 08:55:00 17.4 C 88 % 15.39 C
1549 04-09-2020 09:00:00 17.6 C 88 % 15.59 C
1550 04-09-2020 09:05:00 17.7 C 88 % 15.69 C
Sensor: Nr:Datum:Temp:Feuchte:Taupunkt:
Aussen-T/F 1551 04-09-2020 09:10:00 17.9 C 85 % 15.34 C
1552 04-09-2020 09:15:00 18.1 C 86 % 15.72 C
1553 04-09-2020 09:20:00 18.3 C 86 % 15.92 C
1554 04-09-2020 09:25:00 18.4 C 85 % 15.83 C
1555 04-09-2020 09:30:00 18.6 C 85 % 16.03 C
1556 04-09-2020 09:35:00 18.6 C 85 % 16.03 C
1557 04-09-2020 09:40:00 18.7 C 85 % 16.13 C
1558 04-09-2020 09:45:00 18.7 C 85 % 16.13 C
1559 04-09-2020 09:50:00 18.8 C 84 % 16.04 C
1560 04-09-2020 09:55:00 18.8 C 84 % 16.04 C
1561 04-09-2020 10:00:00 18.9 C 84 % 16.14 C
1562 04-09-2020 10:05:00 18.9 C 84 % 16.14 C
1563 04-09-2020 10:10:00 18.9 C 82 % 15.76 C
1564 04-09-2020 10:15:00 19.1 C 83 % 16.15 C
1565 04-09-2020 10:20:00 19.1 C 83 % 16.15 C
1566 04-09-2020 10:25:00 19.2 C 82 % 16.05 C
1567 04-09-2020 10:30:00 19.3 C 83 % 16.34 C
1568 04-09-2020 10:35:00 19.4 C 83 % 16.44 C
1569 04-09-2020 10:40:00 19.4 C 82 % 16.25 C
1570 04-09-2020 10:45:00 19.6 C 82 % 16.44 C
1571 04-09-2020 10:50:00 19.6 C 82 % 16.44 C
1572 04-09-2020 10:55:00 19.7 C 82 % 16.54 C
1573 04-09-2020 11:00:00 19.7 C 80 % 16.15 C
1574 04-09-2020 11:05:00 19.7 C 81 % 16.35 C
1575 04-09-2020 11:10:00 19.8 C 80 % 16.25 C
Sensor: Nr:Datum:Temp:Feuchte:Taupunkt:
Aussen-T/F 1576 04-09-2020 11:15:00 19.9 C 81 % 16.54 C
1577 04-09-2020 11:20:00 20.1 C 80 % 16.54 C
1578 04-09-2020 11:25:00 20.3 C 80 % 16.74 C
1579 04-09-2020 11:30:00 20.4 C 78 % 16.44 C
1580 04-09-2020 11:35:00 20.6 C 77 % 16.43 C
1581 04-09-2020 11:40:00 20.7 C 78 % 16.73 C
1582 04-09-2020 11:45:00 20.9 C 75 % 16.3 C
1583 04-09-2020 11:50:00 21.1 C 73 % 16.07 C
1584 04-09-2020 11:55:00 21.3 C 75 % 16.69 C
1585 04-09-2020 12:00:00 21.5 C 73 % 16.46 C
1586 04-09-2020 12:05:00 21.7 C 71 % 16.21 C
1587 04-09-2020 12:10:00 21.9 C 72 % 16.62 C
1588 04-09-2020 12:15:00 22.1 C 71 % 16.6 C
1589 04-09-2020 12:20:00 22.3 C 71 % 16.79 C
1590 04-09-2020 12:25:00 22.4 C 71 % 16.88 C
1591 04-09-2020 12:30:00 22.6 C 69 % 16.62 C
1592 04-09-2020 12:35:00 22.8 C 69 % 16.82 C
1593 04-09-2020 12:40:00 22.9 C 71 % 17.36 C
1594 04-09-2020 12:45:00 22.9 C 70 % 17.14 C
1595 04-09-2020 12:50:00 23.1 C 70 % 17.33 C
1596 04-09-2020 12:55:00 23.2 C 69 % 17.2 C
1597 04-09-2020 13:00:00 23.3 C 70 % 17.52 C
1598 04-09-2020 13:05:00 23.6 C 69 % 17.58 C
1599 04-09-2020 13:10:00 23.8 C 67 % 17.3 C
1600 04-09-2020 13:15:00 23.9 C 67 % 17.4 C
Sensor: Nr:Datum:Temp:Feuchte:Taupunkt:
Aussen-T/F 1601 04-09-2020 13:20:00 24.2 C 66 % 17.45 C
1602 04-09-2020 13:25:00 24.4 C 65 % 17.39 C
1603 04-09-2020 13:30:00 24.7 C 64 % 17.43 C
1604 04-09-2020 13:35:00 24.8 C 64 % 17.53 C
1605 04-09-2020 13:40:00 25.1 C 62 % 17.31 C
1606 04-09-2020 13:45:00 25.3 C 64 % 18 C
1607 04-09-2020 13:50:00 25.4 C 63 % 17.84 C
1608 04-09-2020 13:55:00 25.5 C 63 % 17.94 C
1609 04-09-2020 14:00:00 25.6 C 61 % 17.52 C
1610 04-09-2020 14:05:00 25.7 C 61 % 17.61 C
1611 04-09-2020 14:10:00 25.6 C 62 % 17.78 C
1612 04-09-2020 14:15:00 25.6 C 61 % 17.52 C
1613 04-09-2020 14:20:00 25.5 C 61 % 17.43 C
1614 04-09-2020 14:25:00 25.5 C 62 % 17.68 C
1615 04-09-2020 14:30:00 25.6 C 62 % 17.78 C
1616 04-09-2020 14:35:00 25.7 C 61 % 17.61 C
1617 04-09-2020 14:40:00 25.7 C 60 % 17.35 C
1618 04-09-2020 14:45:00 25.8 C 62 % 17.97 C
1619 04-09-2020 14:50:00 25.9 C 64 % 18.57 C
1620 04-09-2020 14:55:00 25.9 C 59 % 17.27 C
1621 04-09-2020 15:00:00 25.7 C 61 % 17.61 C
1622 04-09-2020 15:05:00 25.7 C 61 % 17.61 C
1623 04-09-2020 15:10:00 25.6 C 61 % 17.52 C
1624 04-09-2020 15:15:00 25.6 C 61 % 17.52 C
1625 04-09-2020 15:20:00 25.6 C 61 % 17.52 C
Sensor: Nr:Datum:Temp:Feuchte:Taupunkt:
Aussen-T/F 1626 04-09-2020 15:25:00 25.6 C 61 % 17.52 C
1627 04-09-2020 15:30:00 25.7 C 61 % 17.61 C
1628 04-09-2020 15:35:00 25.8 C 62 % 17.97 C
1629 04-09-2020 15:40:00 25.8 C 61 % 17.71 C
1630 04-09-2020 15:45:00 25.8 C 62 % 17.97 C
1631 04-09-2020 15:50:00 25.8 C 61 % 17.71 C
1632 04-09-2020 15:55:00 25.9 C 60 % 17.54 C
1633 04-09-2020 16:00:00 25.9 C 60 % 17.54 C
1634 04-09-2020 16:05:00 26 C 60 % 17.63 C
1635 04-09-2020 16:10:00 26.1 C 59 % 17.46 C
1636 04-09-2020 16:15:00 26.2 C 59 % 17.55 C
1637 04-09-2020 16:20:00 26.3 C 60 % 17.91 C
1638 04-09-2020 16:25:00 26.2 C 58 % 17.28 C
1639 04-09-2020 16:30:00 26.2 C 59 % 17.55 C
1640 04-09-2020 16:35:00 26.3 C 59 % 17.65 C
1641 04-09-2020 16:40:00 26.4 C 58 % 17.47 C
1642 04-09-2020 16:45:00 26.5 C 59 % 17.83 C
1643 04-09-2020 16:50:00 26.9 C 60 % 18.48 C
1644 04-09-2020 16:55:00 27.1 C 56 % 17.57 C
1645 04-09-2020 17:00:00 27.3 C 57 % 18.03 C
1646 04-09-2020 17:05:00 27.6 C 55 % 17.74 C
1647 04-09-2020 17:10:00 28.1 C 55 % 18.21 C
1648 04-09-2020 17:15:00 28.4 C 53 % 17.9 C
1649 04-09-2020 17:20:00 28.8 C 52 % 17.96 C
1650 04-09-2020 17:25:00 28.8 C 52 % 17.96 C
Sensor: Nr:Datum:Temp:Feuchte:Taupunkt:
Aussen-T/F 1651 04-09-2020 17:30:00 28.7 C 54 % 18.47 C
1652 04-09-2020 17:35:00 28.6 C 57 % 19.24 C
1653 04-09-2020 17:40:00 28.3 C 60 % 19.79 C
1654 04-09-2020 17:45:00 28.1 C 57 % 18.78 C
1655 04-09-2020 17:50:00 27.8 C 61 % 19.59 C
1656 04-09-2020 17:55:00 27.4 C 60 % 18.95 C
1657 04-09-2020 18:00:00 27.1 C 62 % 19.19 C
1658 04-09-2020 18:05:00 26.7 C 61 % 18.55 C
1659 04-09-2020 18:10:00 26.2 C 63 % 18.6 C
1660 04-09-2020 18:15:00 25.8 C 64 % 18.47 C
1661 04-09-2020 18:20:00 25.4 C 66 % 18.58 C
1662 04-09-2020 18:25:00 25.4 C 67 % 18.82 C
1663 04-09-2020 18:30:00 25.4 C 68 % 19.06 C
1664 04-09-2020 18:35:00 25.4 C 68 % 19.06 C
1665 04-09-2020 18:40:00 25.2 C 68 % 18.87 C
1666 04-09-2020 18:45:00 24.9 C 69 % 18.82 C
1667 04-09-2020 18:50:00 24.6 C 70 % 18.76 C
1668 04-09-2020 18:55:00 24.4 C 72 % 19.02 C
1669 04-09-2020 19:00:00 24.2 C 72 % 18.83 C
1670 04-09-2020 19:05:00 24 C 73 % 18.86 C
1671 04-09-2020 19:10:00 23.9 C 73 % 18.76 C
1672 04-09-2020 19:15:00 23.8 C 74 % 18.89 C
1673 04-09-2020 19:20:00 23.6 C 75 % 18.91 C
1674 04-09-2020 19:25:00 23.4 C 75 % 18.71 C
1675 04-09-2020 19:30:00 23.3 C 75 % 18.62 C
Sensor: Nr:Datum:Temp:Feuchte:Taupunkt:
Aussen-T/F 1676 04-09-2020 19:35:00 23.2 C 76 % 18.73 C
1677 04-09-2020 19:40:00 23.1 C 76 % 18.64 C
1678 04-09-2020 19:45:00 22.9 C 77 % 18.65 C
1679 04-09-2020 19:50:00 22.8 C 78 % 18.76 C
1680 04-09-2020 19:55:00 22.7 C 79 % 18.87 C
1681 04-09-2020 20:00:00 22.5 C 79 % 18.67 C
1682 04-09-2020 20:05:00 22.3 C 80 % 18.68 C
1683 04-09-2020 20:10:00 22.2 C 80 % 18.58 C
1684 04-09-2020 20:15:00 22 C 80 % 18.39 C
1685 04-09-2020 20:20:00 21.7 C 81 % 18.3 C
1686 04-09-2020 20:25:00 21.4 C 82 % 18.2 C
1687 04-09-2020 20:30:00 21.2 C 82 % 18 C
1688 04-09-2020 20:35:00 20.9 C 83 % 17.9 C
1689 04-09-2020 20:40:00 20.7 C 84 % 17.9 C
1690 04-09-2020 20:45:00 20.4 C 85 % 17.79 C
1691 04-09-2020 20:50:00 20.3 C 87 % 18.06 C
1692 04-09-2020 20:55:00 20.3 C 87 % 18.06 C
1693 04-09-2020 21:00:00 20.2 C 87 % 17.97 C
1694 04-09-2020 21:05:00 20.1 C 88 % 18.05 C
1695 04-09-2020 21:10:00 20.1 C 88 % 18.05 C
1696 04-09-2020 21:15:00 20.1 C 88 % 18.05 C
1697 04-09-2020 21:20:00 20.1 C 87 % 17.87 C
1698 04-09-2020 21:25:00 20.1 C 87 % 17.87 C
1699 04-09-2020 21:30:00 20.1 C 87 % 17.87 C
1700 04-09-2020 21:35:00 20.1 C 87 % 17.87 C
Sensor: Nr:Datum:Temp:Feuchte:Taupunkt:
Aussen-T/F 1701 04-09-2020 21:40:00 20.1 C 87 % 17.87 C
1702 04-09-2020 21:45:00 20 C 87 % 17.77 C
1703 04-09-2020 21:50:00 20 C 87 % 17.77 C
1704 04-09-2020 21:55:00 19.9 C 87 % 17.67 C
1705 04-09-2020 22:00:00 19.9 C 87 % 17.67 C
1706 04-09-2020 22:05:00 19.9 C 87 % 17.67 C
1707 04-09-2020 22:10:00 19.8 C 87 % 17.57 C
1708 04-09-2020 22:15:00 19.8 C 87 % 17.57 C
1709 04-09-2020 22:20:00 19.8 C 87 % 17.57 C
1710 04-09-2020 22:25:00 19.7 C 87 % 17.47 C
1711 04-09-2020 22:30:00 19.6 C 87 % 17.38 C
1712 04-09-2020 22:35:00 19.4 C 86 % 17 C
1713 04-09-2020 22:40:00 19.2 C 87 % 16.98 C
1714 04-09-2020 22:45:00 19.1 C 87 % 16.89 C
1715 04-09-2020 22:50:00 19 C 88 % 16.97 C
1716 04-09-2020 22:55:00 18.9 C 89 % 17.05 C
1717 04-09-2020 23:00:00 18.9 C 89 % 17.05 C
1718 04-09-2020 23:05:00 18.8 C 89 % 16.95 C
1719 04-09-2020 23:10:00 18.8 C 90 % 17.12 C
1720 04-09-2020 23:15:00 18.8 C 90 % 17.12 C
1721 04-09-2020 23:20:00 18.8 C 90 % 17.12 C
1722 04-09-2020 23:25:00 18.8 C 90 % 17.12 C
1723 04-09-2020 23:30:00 18.7 C 90 % 17.03 C
1724 04-09-2020 23:35:00 18.7 C 91 % 17.2 C
1725 04-09-2020 23:40:00 18.7 C 91 % 17.2 C
Sensor: Nr:Datum:Temp:Feuchte:Taupunkt:
Aussen-T/F 1726 04-09-2020 23:45:00 18.6 C 91 % 17.1 C
1727 04-09-2020 23:50:00 18.6 C 91 % 17.1 C
1728 04-09-2020 23:55:00 18.5 C 91 % 17 C
1729 05-09-2020 00:00:00 18.4 C 90 % 16.73 C
1730 05-09-2020 00:05:00 18.3 C 91 % 16.81 C
1731 05-09-2020 00:10:00 18.2 C 90 % 16.53 C
1732 05-09-2020 00:15:00 18.1 C 91 % 16.61 C
1733 05-09-2020 00:20:00 17.9 C 91 % 16.41 C
1734 05-09-2020 00:25:00 17.8 C 91 % 16.31 C
1735 05-09-2020 00:30:00 17.7 C 91 % 16.21 C
1736 05-09-2020 00:35:00 17.6 C 91 % 16.11 C
1737 05-09-2020 00:40:00 17.6 C 92 % 16.28 C
1738 05-09-2020 00:45:00 17.4 C 91 % 15.92 C
1739 05-09-2020 00:50:00 17.3 C 91 % 15.82 C
1740 05-09-2020 00:55:00 17.2 C 92 % 15.89 C
1741 05-09-2020 01:00:00 17.2 C 92 % 15.89 C
1742 05-09-2020 01:05:00 17.1 C 92 % 15.79 C
1743 05-09-2020 01:10:00 16.9 C 92 % 15.59 C
1744 05-09-2020 01:15:00 16.8 C 92 % 15.49 C
1745 05-09-2020 01:20:00 16.8 C 92 % 15.49 C
1746 05-09-2020 01:25:00 16.7 C 92 % 15.39 C
1747 05-09-2020 01:30:00 16.6 C 92 % 15.3 C
1748 05-09-2020 01:35:00 16.4 C 92 % 15.1 C
1749 05-09-2020 01:40:00 16.3 C 93 % 15.17 C
1750 05-09-2020 01:45:00 16.3 C 93 % 15.17 C
Sensor: Nr:Datum:Temp:Feuchte:Taupunkt:
Aussen-T/F 1751 05-09-2020 01:50:00 16.2 C 93 % 15.07 C
1752 05-09-2020 01:55:00 16.1 C 93 % 14.97 C
1753 05-09-2020 02:00:00 16 C 93 % 14.87 C
1754 05-09-2020 02:05:00 15.9 C 93 % 14.77 C
1755 05-09-2020 02:10:00 15.9 C 93 % 14.77 C
1756 05-09-2020 02:15:00 15.8 C 94 % 14.84 C
1757 05-09-2020 02:20:00 15.8 C 94 % 14.84 C
1758 05-09-2020 02:25:00 15.8 C 94 % 14.84 C
1759 05-09-2020 02:30:00 15.8 C 94 % 14.84 C
1760 05-09-2020 02:35:00 15.9 C 94 % 14.94 C
1761 05-09-2020 02:40:00 15.9 C 94 % 14.94 C
1762 05-09-2020 02:45:00 15.9 C 94 % 14.94 C
1763 05-09-2020 02:50:00 15.9 C 94 % 14.94 C
1764 05-09-2020 02:55:00 15.9 C 94 % 14.94 C
1765 05-09-2020 03:00:00 15.9 C 95 % 15.1 C
1766 05-09-2020 03:05:00 15.9 C 95 % 15.1 C
1767 05-09-2020 03:10:00 15.9 C 95 % 15.1 C
1768 05-09-2020 03:15:00 16 C 95 % 15.2 C
1769 05-09-2020 03:20:00 16 C 95 % 15.2 C
1770 05-09-2020 03:25:00 16 C 95 % 15.2 C
1771 05-09-2020 03:30:00 16 C 95 % 15.2 C
1772 05-09-2020 03:35:00 16.1 C 95 % 15.3 C
1773 05-09-2020 03:40:00 16.1 C 95 % 15.3 C
1774 05-09-2020 03:45:00 16.2 C 95 % 15.4 C
1775 05-09-2020 03:50:00 16.2 C 95 % 15.4 C
Sensor: Nr:Datum:Temp:Feuchte:Taupunkt:
Aussen-T/F 1776 05-09-2020 03:55:00 16.2 C 95 % 15.4 C
1777 05-09-2020 04:00:00 16.3 C 95 % 15.5 C
1778 05-09-2020 04:05:00 16.3 C 95 % 15.5 C
1779 05-09-2020 04:10:00 16.3 C 96 % 15.66 C
1780 05-09-2020 04:15:00 16.4 C 96 % 15.76 C
1781 05-09-2020 04:20:00 16.5 C 96 % 15.86 C
1782 05-09-2020 04:25:00 16.6 C 96 % 15.96 C
1783 05-09-2020 04:30:00 16.6 C 96 % 15.96 C
1784 05-09-2020 04:35:00 16.6 C 96 % 15.96 C
1785 05-09-2020 04:40:00 16.6 C 96 % 15.96 C
1786 05-09-2020 04:45:00 16.6 C 96 % 15.96 C
1787 05-09-2020 04:50:00 16.6 C 96 % 15.96 C
1788 05-09-2020 04:55:00 16.7 C 96 % 16.06 C
1789 05-09-2020 05:00:00 16.7 C 96 % 16.06 C
1790 05-09-2020 05:05:00 16.7 C 96 % 16.06 C
1791 05-09-2020 05:10:00 16.7 C 96 % 16.06 C
1792 05-09-2020 05:15:00 16.7 C 96 % 16.06 C
1793 05-09-2020 05:20:00 16.7 C 96 % 16.06 C
1794 05-09-2020 05:25:00 16.7 C 96 % 16.06 C
1795 05-09-2020 05:30:00 16.7 C 96 % 16.06 C
1796 05-09-2020 05:35:00 16.7 C 95 % 15.9 C
1797 05-09-2020 05:40:00 16.7 C 95 % 15.9 C
1798 05-09-2020 05:45:00 16.7 C 95 % 15.9 C
1799 05-09-2020 05:50:00 16.7 C 95 % 15.9 C
1800 05-09-2020 05:55:00 16.7 C 95 % 15.9 C
Sensor: Nr:Datum:Temp:Feuchte:Taupunkt:
Aussen-T/F 1801 05-09-2020 06:00:00 16.7 C 95 % 15.9 C
1802 05-09-2020 06:05:00 16.7 C 95 % 15.9 C
1803 05-09-2020 06:10:00 16.7 C 95 % 15.9 C
1804 05-09-2020 06:15:00 16.7 C 95 % 15.9 C
1805 05-09-2020 06:20:00 16.6 C 95 % 15.8 C
1806 05-09-2020 06:25:00 16.4 C 94 % 15.43 C
1807 05-09-2020 06:30:00 16 C 91 % 14.53 C
1808 05-09-2020 06:35:00 15.9 C 89 % 14.09 C
1809 05-09-2020 06:40:00 15.8 C 88 % 13.82 C
1810 05-09-2020 06:45:00 15.8 C 86 % 13.46 C
1811 05-09-2020 06:50:00 15.9 C 86 % 13.56 C
1812 05-09-2020 06:55:00 15.9 C 85 % 13.38 C
1813 05-09-2020 07:00:00 15.9 C 85 % 13.38 C
1814 05-09-2020 07:05:00 15.9 C 85 % 13.38 C
1815 05-09-2020 07:10:00 15.9 C 84 % 13.2 C
1816 05-09-2020 07:15:00 15.9 C 84 % 13.2 C
1817 05-09-2020 07:20:00 15.9 C 85 % 13.38 C
1818 05-09-2020 07:25:00 15.9 C 84 % 13.2 C
1819 05-09-2020 07:30:00 15.8 C 85 % 13.28 C
1820 05-09-2020 07:35:00 15.8 C 85 % 13.28 C
1821 05-09-2020 07:40:00 15.8 C 85 % 13.28 C
1822 05-09-2020 07:45:00 15.7 C 85 % 13.19 C
1823 05-09-2020 07:50:00 15.7 C 85 % 13.19 C
1824 05-09-2020 07:55:00 15.6 C 85 % 13.09 C
1825 05-09-2020 08:00:00 15.6 C 85 % 13.09 C
Sensor: Nr:Datum:Temp:Feuchte:Taupunkt:
Aussen-T/F 1826 05-09-2020 08:05:00 15.6 C 85 % 13.09 C
1827 05-09-2020 08:10:00 15.6 C 85 % 13.09 C
1828 05-09-2020 08:15:00 15.6 C 85 % 13.09 C
1829 05-09-2020 08:20:00 15.5 C 85 % 12.99 C
1830 05-09-2020 08:25:00 15.5 C 85 % 12.99 C
1831 05-09-2020 08:30:00 15.5 C 86 % 13.17 C
1832 05-09-2020 08:35:00 15.5 C 86 % 13.17 C
1833 05-09-2020 08:40:00 15.4 C 86 % 13.07 C
1834 05-09-2020 08:45:00 15.4 C 86 % 13.07 C
1835 05-09-2020 08:50:00 15.4 C 86 % 13.07 C
1836 05-09-2020 08:55:00 15.5 C 86 % 13.17 C
1837 05-09-2020 09:00:00 15.6 C 86 % 13.27 C
1838 05-09-2020 09:05:00 15.6 C 86 % 13.27 C
1839 05-09-2020 09:10:00 15.7 C 85 % 13.19 C
1840 05-09-2020 09:15:00 15.8 C 85 % 13.28 C
1841 05-09-2020 09:20:00 15.9 C 84 % 13.2 C
1842 05-09-2020 09:25:00 15.9 C 83 % 13.02 C
1843 05-09-2020 09:30:00 15.9 C 84 % 13.2 C
1844 05-09-2020 09:35:00 15.9 C 83 % 13.02 C
1845 05-09-2020 09:40:00 15.9 C 83 % 13.02 C
1846 05-09-2020 09:45:00 16 C 84 % 13.3 C
1847 05-09-2020 09:50:00 16.1 C 82 % 13.03 C
1848 05-09-2020 09:55:00 16.2 C 82 % 13.13 C
1849 05-09-2020 10:00:00 16.2 C 82 % 13.13 C
1850 05-09-2020 10:05:00 16.2 C 81 % 12.94 C
Sensor: Nr:Datum:Temp:Feuchte:Taupunkt:
Aussen-T/F 1851 05-09-2020 10:10:00 16.2 C 81 % 12.94 C
1852 05-09-2020 10:15:00 16.3 C 81 % 13.04 C
1853 05-09-2020 10:20:00 16.3 C 81 % 13.04 C
1854 05-09-2020 10:25:00 16.4 C 81 % 13.13 C
1855 05-09-2020 10:30:00 16.6 C 80 % 13.14 C
1856 05-09-2020 10:35:00 16.8 C 80 % 13.33 C
1857 05-09-2020 10:40:00 17.1 C 81 % 13.82 C
1858 05-09-2020 10:45:00 17.2 C 81 % 13.91 C
1859 05-09-2020 10:50:00 17.2 C 80 % 13.72 C
1860 05-09-2020 10:55:00 17.2 C 79 % 13.53 C
1861 05-09-2020 11:00:00 17.2 C 80 % 13.72 C
1862 05-09-2020 11:05:00 17.3 C 79 % 13.63 C
1863 05-09-2020 11:10:00 17.4 C 78 % 13.53 C
1864 05-09-2020 11:15:00 17.5 C 78 % 13.62 C
1865 05-09-2020 11:20:00 17.6 C 76 % 13.32 C
1866 05-09-2020 11:25:00 17.8 C 76 % 13.52 C
1867 05-09-2020 11:30:00 17.9 C 77 % 13.81 C
1868 05-09-2020 11:35:00 18.2 C 75 % 13.7 C
1869 05-09-2020 11:40:00 18.2 C 74 % 13.49 C
1870 05-09-2020 11:45:00 18.2 C 74 % 13.49 C
1871 05-09-2020 11:50:00 18.1 C 74 % 13.4 C
1872 05-09-2020 11:55:00 18.1 C 74 % 13.4 C
1873 05-09-2020 12:00:00 18.1 C 75 % 13.6 C
1874 05-09-2020 12:05:00 18.1 C 74 % 13.4 C
1875 05-09-2020 12:10:00 18.2 C 74 % 13.49 C
Sensor: Nr:Datum:Temp:Feuchte:Taupunkt:
Aussen-T/F 1876 05-09-2020 12:15:00 18.3 C 73 % 13.38 C
1877 05-09-2020 12:20:00 18.3 C 73 % 13.38 C
1878 05-09-2020 12:25:00 18.3 C 72 % 13.17 C
1879 05-09-2020 12:30:00 18.4 C 73 % 13.48 C
1880 05-09-2020 12:35:00 18.5 C 72 % 13.36 C
1881 05-09-2020 12:40:00 18.6 C 70 % 13.02 C
1882 05-09-2020 12:45:00 18.6 C 70 % 13.02 C
1883 05-09-2020 12:50:00 18.5 C 71 % 13.15 C
1884 05-09-2020 12:55:00 18.5 C 72 % 13.36 C
1885 05-09-2020 13:00:00 18.6 C 71 % 13.24 C
1886 05-09-2020 13:05:00 18.6 C 71 % 13.24 C
1887 05-09-2020 13:10:00 18.6 C 71 % 13.24 C
1888 05-09-2020 13:15:00 18.6 C 71 % 13.24 C
1889 05-09-2020 13:20:00 18.6 C 71 % 13.24 C
1890 05-09-2020 13:25:00 18.6 C 71 % 13.24 C
1891 05-09-2020 13:30:00 18.7 C 72 % 13.55 C
1892 05-09-2020 13:35:00 18.7 C 70 % 13.12 C
1893 05-09-2020 13:40:00 18.7 C 71 % 13.34 C
1894 05-09-2020 13:45:00 18.6 C 71 % 13.24 C
1895 05-09-2020 13:50:00 18.7 C 71 % 13.34 C
1896 05-09-2020 13:55:00 18.7 C 70 % 13.12 C
1897 05-09-2020 14:00:00 18.8 C 68 % 12.77 C
1898 05-09-2020 14:05:00 18.8 C 68 % 12.77 C
1899 05-09-2020 14:10:00 18.8 C 69 % 13 C
1900 05-09-2020 14:15:00 18.9 C 69 % 13.09 C
Sensor: Nr:Datum:Temp:Feuchte:Taupunkt:
Aussen-T/F 1901 05-09-2020 14:20:00 19 C 69 % 13.19 C
1902 05-09-2020 14:25:00 19.1 C 68 % 13.06 C
1903 05-09-2020 14:30:00 19.2 C 68 % 13.15 C
1904 05-09-2020 14:35:00 19.1 C 68 % 13.06 C
1905 05-09-2020 14:40:00 18.9 C 69 % 13.09 C
1906 05-09-2020 14:45:00 18.7 C 71 % 13.34 C
1907 05-09-2020 14:50:00 18.4 C 72 % 13.26 C
1908 05-09-2020 14:55:00 18.2 C 72 % 13.07 C
1909 05-09-2020 15:00:00 18 C 73 % 13.09 C
1910 05-09-2020 15:05:00 17.8 C 74 % 13.11 C
1911 05-09-2020 15:10:00 17.7 C 75 % 13.22 C
1912 05-09-2020 15:15:00 17.6 C 74 % 12.91 C
1913 05-09-2020 15:20:00 17.6 C 74 % 12.91 C
1914 05-09-2020 15:25:00 17.5 C 74 % 12.82 C
1915 05-09-2020 15:30:00 17.4 C 74 % 12.72 C
1916 05-09-2020 15:35:00 17.5 C 74 % 12.82 C
1917 05-09-2020 15:40:00 17.7 C 73 % 12.8 C
1918 05-09-2020 15:45:00 18 C 73 % 13.09 C
1919 05-09-2020 15:50:00 18.2 C 70 % 12.64 C
1920 05-09-2020 15:55:00 18.2 C 69 % 12.42 C
1921 05-09-2020 16:00:00 18.2 C 70 % 12.64 C
1922 05-09-2020 16:05:00 18.2 C 69 % 12.42 C
1923 05-09-2020 16:10:00 18.2 C 68 % 12.2 C
1924 05-09-2020 16:15:00 18.3 C 68 % 12.3 C
1925 05-09-2020 16:20:00 18.5 C 68 % 12.49 C
Sensor: Nr:Datum:Temp:Feuchte:Taupunkt:
Aussen-T/F 1926 05-09-2020 16:25:00 18.7 C 67 % 12.45 C
1927 05-09-2020 16:30:00 18.8 C 66 % 12.32 C
1928 05-09-2020 16:35:00 18.9 C 67 % 12.64 C
1929 05-09-2020 16:40:00 19.1 C 65 % 12.37 C
1930 05-09-2020 16:45:00 19.1 C 65 % 12.37 C
1931 05-09-2020 16:50:00 19.1 C 64 % 12.14 C
1932 05-09-2020 16:55:00 19.1 C 64 % 12.14 C
1933 05-09-2020 17:00:00 19 C 63 % 11.8 C
1934 05-09-2020 17:05:00 19 C 64 % 12.04 C
1935 05-09-2020 17:10:00 19.2 C 63 % 11.99 C
1936 05-09-2020 17:15:00 19.3 C 61 % 11.6 C
1937 05-09-2020 17:20:00 19.4 C 62 % 11.94 C
1938 05-09-2020 17:25:00 19.5 C 60 % 11.53 C
1939 05-09-2020 17:30:00 19.6 C 59 % 11.37 C
1940 05-09-2020 17:35:00 19.6 C 59 % 11.37 C
1941 05-09-2020 17:40:00 19.6 C 58 % 11.12 C
1942 05-09-2020 17:45:00 19.7 C 57 % 10.95 C
1943 05-09-2020 17:50:00 19.7 C 57 % 10.95 C
1944 05-09-2020 17:55:00 19.7 C 58 % 11.21 C
1945 05-09-2020 18:00:00 19.7 C 56 % 10.68 C
1946 05-09-2020 18:05:00 19.6 C 55 % 10.32 C
1947 05-09-2020 18:10:00 19.5 C 57 % 10.76 C
1948 05-09-2020 18:15:00 19.5 C 57 % 10.76 C
1949 05-09-2020 18:20:00 19.8 C 54 % 10.23 C
1950 05-09-2020 18:25:00 20.3 C 52 % 10.13 C
Sensor: Nr:Datum:Temp:Feuchte:Taupunkt:
Aussen-T/F 1951 05-09-2020 18:30:00 20.7 C 52 % 10.5 C
1952 05-09-2020 18:35:00 20.7 C 49 % 9.61 C
1953 05-09-2020 18:40:00 20.8 C 47 % 9.08 C
1954 05-09-2020 18:45:00 20.8 C 46 % 8.77 C
1955 05-09-2020 18:50:00 20.7 C 50 % 9.91 C
1956 05-09-2020 18:55:00 20.3 C 48 % 8.94 C
1957 05-09-2020 19:00:00 19.9 C 50 % 9.18 C
1958 05-09-2020 19:05:00 19.6 C 50 % 8.9 C
1959 05-09-2020 19:10:00 19.5 C 57 % 10.76 C
1960 05-09-2020 19:15:00 19.4 C 60 % 11.44 C
1961 05-09-2020 19:20:00 19.1 C 57 % 10.39 C
1962 05-09-2020 19:25:00 18.8 C 57 % 10.11 C
1963 05-09-2020 19:30:00 18.6 C 58 % 10.18 C
1964 05-09-2020 19:35:00 18.3 C 62 % 10.9 C
1965 05-09-2020 19:40:00 18 C 63 % 10.86 C
1966 05-09-2020 19:45:00 17.6 C 61 % 10 C
1967 05-09-2020 19:50:00 17.3 C 59 % 9.22 C
1968 05-09-2020 19:55:00 17.1 C 62 % 9.77 C
1969 05-09-2020 20:00:00 16.8 C 65 % 10.19 C
1970 05-09-2020 20:05:00 16.7 C 62 % 9.39 C
1971 05-09-2020 20:10:00 16.7 C 62 % 9.39 C
1972 05-09-2020 20:15:00 16.7 C 63 % 9.63 C
1973 05-09-2020 20:20:00 16.7 C 63 % 9.63 C
1974 05-09-2020 20:25:00 16.7 C 66 % 10.32 C
1975 05-09-2020 20:30:00 16.6 C 65 % 10 C
Sensor: Nr:Datum:Temp:Feuchte:Taupunkt:
Aussen-T/F 1976 05-09-2020 20:35:00 16.5 C 66 % 10.13 C
1977 05-09-2020 20:40:00 16.3 C 67 % 10.17 C
1978 05-09-2020 20:45:00 16.1 C 69 % 10.42 C
1979 05-09-2020 20:50:00 15.7 C 70 % 10.25 C
1980 05-09-2020 20:55:00 15.4 C 72 % 10.38 C
1981 05-09-2020 21:00:00 15.1 C 73 % 10.3 C
1982 05-09-2020 21:05:00 14.9 C 74 % 10.31 C
1983 05-09-2020 21:10:00 14.7 C 75 % 10.32 C
1984 05-09-2020 21:15:00 14.5 C 75 % 10.13 C
1985 05-09-2020 21:20:00 14.4 C 76 % 10.23 C
1986 05-09-2020 21:25:00 14.3 C 77 % 10.33 C
1987 05-09-2020 21:30:00 14.2 C 76 % 10.03 C
1988 05-09-2020 21:35:00 14.2 C 76 % 10.03 C
1989 05-09-2020 21:40:00 14.2 C 77 % 10.23 C
1990 05-09-2020 21:45:00 14.1 C 76 % 9.94 C
1991 05-09-2020 21:50:00 13.9 C 77 % 9.94 C
1992 05-09-2020 21:55:00 13.8 C 78 % 10.03 C
1993 05-09-2020 22:00:00 13.8 C 78 % 10.03 C
1994 05-09-2020 22:05:00 13.7 C 77 % 9.75 C
1995 05-09-2020 22:10:00 13.7 C 78 % 9.94 C
1996 05-09-2020 22:15:00 13.7 C 78 % 9.94 C
1997 05-09-2020 22:20:00 13.7 C 78 % 9.94 C
1998 05-09-2020 22:25:00 13.7 C 78 % 9.94 C
1999 05-09-2020 22:30:00 13.6 C 78 % 9.84 C
2000 05-09-2020 22:35:00 13.7 C 78 % 9.94 C
Sensor: Nr:Datum:Temp:Feuchte:Taupunkt:
Aussen-T/F 2001 05-09-2020 22:40:00 13.8 C 78 % 10.03 C
2002 05-09-2020 22:45:00 13.8 C 79 % 10.22 C
2003 05-09-2020 22:50:00 13.8 C 79 % 10.22 C
2004 05-09-2020 22:55:00 13.7 C 79 % 10.13 C
2005 05-09-2020 23:00:00 13.6 C 79 % 10.03 C
2006 05-09-2020 23:05:00 13.4 C 79 % 9.84 C
2007 05-09-2020 23:10:00 13.3 C 80 % 9.93 C
2008 05-09-2020 23:15:00 13.2 C 80 % 9.83 C
2009 05-09-2020 23:20:00 13.1 C 81 % 9.92 C
2010 05-09-2020 23:25:00 13.1 C 81 % 9.92 C
2011 05-09-2020 23:30:00 13.1 C 82 % 10.1 C
2012 05-09-2020 23:35:00 12.9 C 82 % 9.9 C
2013 05-09-2020 23:40:00 12.9 C 82 % 9.9 C
2014 05-09-2020 23:45:00 12.8 C 81 % 9.62 C
2015 05-09-2020 23:50:00 12.8 C 82 % 9.81 C
2016 05-09-2020 23:55:00 12.8 C 82 % 9.81 C

Legende:
   Min
   Max


Maximal/Minimal-Werte vom 30.08.2020 - 05.09.2020

Sensor Min Max Avg
Temp
(Aussen-T/F)
9.7 °C
03-09-2020  05:20:00
28.8 °C
04-09-2020  17:20:00
16.23 °C
Feuchte
(Aussen-T/F)
40 %
02-09-2020  17:25:00
97 %
30-08-2020  08:55:00
83.36 %
Taupunkt
(Aussen-T/F)
8.62 C
03-09-2020  05:20:00
19.79 C
04-09-2020  17:40:00
13.16 C

Die Daten stammen von einer Davis Vantage Pro 2 Wetter-Station und werden unter Linux mit der Software wview2wettercgi und aufbereitet. Alle Angaben erfolgen ohne Gewähr für ihre Vollständigkeit oder Richtigkeit.
Kontakt: Rainer Krienke krienke@uni-koblenz.de . Meine Webseiten an der Uni Koblenz oder privat.
Version: $Revision: 0.78 $